Observation data for Panhandle on 08/11/2019      Previous  Date       Current Mesonet Observations  Soil Data  Daily Summary Page  Observations in Plain Language
KPA1 110500Z 14010KT 26/15 A3003 RMK A01 T02620147  RH  049%=      5-min Rain = 0
KPA1 110501Z 14010KT 26/15 A3003 RMK A01 T02620147  RH  049%=      5-min Rain = 0
KPA1 110502Z 14011KT 26/15 A3003 RMK A01 T02620146  RH  049%=      5-min Rain = 0
KPA1 110503Z 14010KT 26/15 A3003 RMK A01 T02630146  RH  048%=      5-min Rain = 0
KPA1 110504Z 14010KT 26/15 A3003 RMK A01 T02630146  RH  048%=      5-min Rain = 0
KPA1 110505Z 14010KT 26/15 A3003 RMK A01 T02630146  RH  048%=      5-min Rain = 0
KPA1 110506Z 14010KT 26/15 A3003 RMK A01 T02620145  RH  048%=      5-min Rain = 0
KPA1 110507Z 14010KT 26/15 A3003 RMK A01 T02630145  RH  048%=      5-min Rain = 0
KPA1 110508Z 14011KT 26/15 A3003 RMK A01 T02630145  RH  048%=      5-min Rain = 0
KPA1 110509Z 14010KT 26/15 A3003 RMK A01 T02630145  RH  048%=      5-min Rain = 0
KPA1 110510Z 14009KT 26/15 A3003 RMK A01 T02630145  RH  048%=      5-min Rain = 0
KPA1 110511Z 14010KT 26/15 A3003 RMK A01 T02620145  RH  049%=      5-min Rain = 0
KPA1 110512Z 14010KT 26/15 A3003 RMK A01 T02620145  RH  048%=      5-min Rain = 0
KPA1 110513Z 14010KT 26/15 A3003 RMK A01 T02620145  RH  049%=      5-min Rain = 0
KPA1 110514Z 14009KT 26/15 A3003 RMK A01 T02620145  RH  049%=      5-min Rain = 0
KPA1 110515Z 14010KT 26/15 A3003 RMK A01 T02610145  RH  049%=      5-min Rain = 0
KPA1 110516Z 14010KT 26/14 A3003 RMK A01 T02610144  RH  049%=      5-min Rain = 0
KPA1 110517Z 14010KT 26/14 A3003 RMK A01 T02610144  RH  049%=      5-min Rain = 0
KPA1 110518Z 14010KT 26/14 A3003 RMK A01 T02610144  RH  049%=      5-min Rain = 0
KPA1 110519Z 14010KT 26/15 A3004 RMK A01 T02610145  RH  049%=      5-min Rain = 0
KPA1 110520Z 14010KT 26/14 A3004 RMK A01 T02600144  RH  049%=      5-min Rain = 0
KPA1 110521Z 14010KT 26/15 A3004 RMK A01 T02600145  RH  049%=      5-min Rain = 0
KPA1 110522Z 14010KT 26/15 A3004 RMK A01 T02600145  RH  049%=      5-min Rain = 0
KPA1 110523Z 14009KT 26/15 A3004 RMK A01 T02600145  RH  049%=      5-min Rain = 0
KPA1 110524Z 14009KT 26/14 A3004 RMK A01 T02600144  RH  049%=      5-min Rain = 0
KPA1 110525Z 14010KT 26/15 A3004 RMK A01 T02590145  RH  049%=      5-min Rain = 0
KPA1 110526Z 14010KT 26/14 A3004 RMK A01 T02590144  RH  049%=      5-min Rain = 0
KPA1 110527Z 14010KT 26/14 A3004 RMK A01 T02590144  RH  049%=      5-min Rain = 0
KPA1 110528Z 14009KT 26/15 A3004 RMK A01 T02590145  RH  049%=      5-min Rain = 0
KPA1 110529Z 14009KT 26/15 A3004 RMK A01 T02580145  RH  050%=      5-min Rain = 0
KPA1 110530Z 14009KT 26/15 A3004 RMK A01 T02580145  RH  050%=      5-min Rain = 0
KPA1 110531Z 14009KT 26/15 A3004 RMK A01 T02570145  RH  050%=      5-min Rain = 0
KPA1 110532Z 15009KT 26/15 A3004 RMK A01 T02560145  RH  050%=      5-min Rain = 0
KPA1 110533Z 15008KT 26/15 A3004 RMK A01 T02560145  RH  050%=      5-min Rain = 0
KPA1 110534Z 14009KT 26/15 A3004 RMK A01 T02550145  RH  051%=      5-min Rain = 0
KPA1 110535Z 14008KT 25/15 A3004 RMK A01 T02540145  RH  051%=      5-min Rain = 0
KPA1 110536Z 14008KT 25/15 A3004 RMK A01 T02540145  RH  051%=      5-min Rain = 0
KPA1 110537Z 14009KT 25/15 A3004 RMK A01 T02530145  RH  051%=      5-min Rain = 0
KPA1 110538Z 14009KT 25/15 A3004 RMK A01 T02530145  RH  051%=      5-min Rain = 0
KPA1 110539Z 14008KT 25/15 A3004 RMK A01 T02530145  RH  051%=      5-min Rain = 0
KPA1 110540Z 14008KT 25/15 A3004 RMK A01 T02530145  RH  051%=      5-min Rain = 0
KPA1 110541Z 14009KT 25/15 A3004 RMK A01 T02520146  RH  052%=      5-min Rain = 0
KPA1 110542Z 14009KT 25/15 A3004 RMK A01 T02520145  RH  052%=      5-min Rain = 0
KPA1 110543Z 14008KT 25/15 A3004 RMK A01 T02520145  RH  052%=      5-min Rain = 0
KPA1 110544Z 14008KT 25/15 A3003 RMK A01 T02520146  RH  052%=      5-min Rain = 0
KPA1 110545Z 14010KT 25/15 A3003 RMK A01 T02510146  RH  052%=      5-min Rain = 0
KPA1 110546Z 14009KT 25/15 A3003 RMK A01 T02510145  RH  052%=      5-min Rain = 0
KPA1 110547Z 14010KT 25/15 A3003 RMK A01 T02510145  RH  052%=      5-min Rain = 0
KPA1 110548Z 14011KT 25/15 A3003 RMK A01 T02510145  RH  052%=      5-min Rain = 0
KPA1 110549Z 14010KT 25/15 A3003 RMK A01 T02520145  RH  051%=      5-min Rain = 0
KPA1 110550Z 14010KT 25/14 A3003 RMK A01 T02520144  RH  051%=      5-min Rain = 0
KPA1 110551Z 14009KT 25/14 A3003 RMK A01 T02520144  RH  051%=      5-min Rain = 0
KPA1 110552Z 14010KT 25/15 A3003 RMK A01 T02520145  RH  051%=      5-min Rain = 0
KPA1 110553Z 14009KT 25/15 A3003 RMK A01 T02520145  RH  051%=      5-min Rain = 0
KPA1 110554Z 14010KT 25/14 A3003 RMK A01 T02520144  RH  051%=      5-min Rain = 0
KPA1 110555Z 15009KT 25/15 A3003 RMK A01 T02520145  RH  051%=      5-min Rain = 0
KPA1 110556Z 15009KT 25/15 A3003 RMK A01 T02520145  RH  051%=      5-min Rain = 0
KPA1 110557Z 15009KT 25/14 A3003 RMK A01 T02510144  RH  051%=      5-min Rain = 0
KPA1 110558Z 15009KT 25/14 A3003 RMK A01 T02510144  RH  051%=      5-min Rain = 0
KPA1 110559Z 15009KT 25/14 A3003 RMK A01 T02510144  RH  052%=      5-min Rain = 0
KPA1 110600Z 15009KT 25/14 A3004 RMK A01 T02500144  RH  052%=      5-min Rain = 0
KPA1 110601Z 15008KT 25/14 A3004 RMK A01 T02500144  RH  052%=      5-min Rain = 0
KPA1 110602Z 15009KT 25/14 A3004 RMK A01 T02490144  RH  052%=      5-min Rain = 0
KPA1 110603Z 15008KT 25/14 A3004 RMK A01 T02490144  RH  052%=      5-min Rain = 0
KPA1 110604Z 15009KT 25/15 A3004 RMK A01 T02490145  RH  052%=      5-min Rain = 0
KPA1 110605Z 15008KT 25/14 A3004 RMK A01 T02490144  RH  052%=      5-min Rain = 0
KPA1 110606Z 15008KT 25/14 A3004 RMK A01 T02480144  RH  052%=      5-min Rain = 0
KPA1 110607Z 15009KT 25/15 A3004 RMK A01 T02480145  RH  052%=      5-min Rain = 0
KPA1 110608Z 15009KT 25/14 A3004 RMK A01 T02480144  RH  052%=      5-min Rain = 0
KPA1 110609Z 15008KT 25/15 A3004 RMK A01 T02480145  RH  053%=      5-min Rain = 0
KPA1 110610Z 15008KT 25/15 A3003 RMK A01 T02470145  RH  053%=      5-min Rain = 0
KPA1 110611Z 15008KT 25/15 A3003 RMK A01 T02470145  RH  053%=      5-min Rain = 0
KPA1 110612Z 15008KT 25/15 A3003 RMK A01 T02460145  RH  053%=      5-min Rain = 0
KPA1 110613Z 15008KT 25/15 A3003 RMK A01 T02460145  RH  053%=      5-min Rain = 0
KPA1 110614Z 15008KT 25/15 A3003 RMK A01 T02460145  RH  053%=      5-min Rain = 0
KPA1 110615Z 15008KT 25/15 A3003 RMK A01 T02450145  RH  054%=      5-min Rain = 0
KPA1 110616Z 15008KT 25/15 A3003 RMK A01 T02450145  RH  054%=      5-min Rain = 0
KPA1 110617Z 15009KT 25/15 A3003 RMK A01 T02450145  RH  054%=      5-min Rain = 0
KPA1 110618Z 15008KT 25/15 A3003 RMK A01 T02450145  RH  054%=      5-min Rain = 0
KPA1 110619Z 15009KT 24/15 A3003 RMK A01 T02440145  RH  054%=      5-min Rain = 0
KPA1 110620Z 15009KT 25/15 A3003 RMK A01 T02450146  RH  054%=      5-min Rain = 0
KPA1 110621Z 15009KT 24/15 A3003 RMK A01 T02440145  RH  054%=      5-min Rain = 0
KPA1 110622Z 15008KT 24/15 A3003 RMK A01 T02440146  RH  054%=      5-min Rain = 0
KPA1 110623Z 15008KT 24/15 A3003 RMK A01 T02440146  RH  054%=      5-min Rain = 0
KPA1 110624Z 15008KT 24/15 A3003 RMK A01 T02440146  RH  054%=      5-min Rain = 0
KPA1 110625Z 15008KT 24/15 A3003 RMK A01 T02440146  RH  054%=      5-min Rain = 0
KPA1 110626Z 15008KT 24/15 A3003 RMK A01 T02440146  RH  054%=      5-min Rain = 0
KPA1 110627Z 15008KT 24/15 A3003 RMK A01 T02440146  RH  054%=      5-min Rain = 0
KPA1 110628Z 15008KT 24/15 A3003 RMK A01 T02430146  RH  055%=      5-min Rain = 0
KPA1 110629Z 15008KT 24/15 A3003 RMK A01 T02430146  RH  055%=      5-min Rain = 0
KPA1 110630Z 14008KT 24/15 A3003 RMK A01 T02430146  RH  055%=      5-min Rain = 0
KPA1 110631Z 15008KT 24/15 A3003 RMK A01 T02420147  RH  055%=      5-min Rain = 0
KPA1 110632Z 14009KT 24/15 A3003 RMK A01 T02420147  RH  055%=      5-min Rain = 0
KPA1 110633Z 14008KT 24/15 A3003 RMK A01 T02420146  RH  055%=      5-min Rain = 0
KPA1 110634Z 14008KT 24/15 A3003 RMK A01 T02420147  RH  055%=      5-min Rain = 0
KPA1 110635Z 14009KT 24/15 A3003 RMK A01 T02420147  RH  055%=      5-min Rain = 0
KPA1 110636Z 14009KT 24/15 A3003 RMK A01 T02420146  RH  055%=      5-min Rain = 0
KPA1 110637Z 14008KT 24/15 A3003 RMK A01 T02420146  RH  055%=      5-min Rain = 0
KPA1 110638Z 14009KT 24/15 A3003 RMK A01 T02420146  RH  055%=      5-min Rain = 0
KPA1 110639Z 14008KT 24/15 A3003 RMK A01 T02430147  RH  055%=      5-min Rain = 0
KPA1 110640Z 14008KT 24/15 A3003 RMK A01 T02430146  RH  055%=      5-min Rain = 0
KPA1 110641Z 14008KT 24/15 A3003 RMK A01 T02430146  RH  055%=      5-min Rain = 0
KPA1 110642Z 14008KT 24/15 A3003 RMK A01 T02430146  RH  055%=      5-min Rain = 0
KPA1 110643Z 14008KT 24/15 A3003 RMK A01 T02430146  RH  055%=      5-min Rain = 0
KPA1 110644Z 14008KT 24/15 A3003 RMK A01 T02430146  RH  055%=      5-min Rain = 0
KPA1 110645Z 14008KT 24/15 A3003 RMK A01 T02420146  RH  055%=      5-min Rain = 0
KPA1 110646Z 14009KT 24/15 A3003 RMK A01 T02430146  RH  055%=      5-min Rain = 0
KPA1 110647Z 14008KT 24/15 A3003 RMK A01 T02430146  RH  055%=      5-min Rain = 0
KPA1 110648Z 14009KT 24/15 A3003 RMK A01 T02430146  RH  055%=      5-min Rain = 0
KPA1 110649Z 15008KT 24/15 A3003 RMK A01 T02430146  RH  055%=      5-min Rain = 0
KPA1 110650Z 15008KT 24/15 A3002 RMK A01 T02420147  RH  055%=      5-min Rain = 0
KPA1 110651Z 15008KT 24/15 A3002 RMK A01 T02400147  RH  056%=      5-min Rain = 0
KPA1 110652Z 15008KT 24/15 A3002 RMK A01 T02390147  RH  056%=      5-min Rain = 0
KPA1 110653Z 15007KT 24/15 A3002 RMK A01 T02380147  RH  057%=      5-min Rain = 0
KPA1 110654Z 15008KT 24/15 A3002 RMK A01 T02380147  RH  057%=      5-min Rain = 0
KPA1 110655Z 16007KT 24/15 A3002 RMK A01 T02370147  RH  057%=      5-min Rain = 0
KPA1 110656Z 16007KT 24/15 A3002 RMK A01 T02370147  RH  057%=      5-min Rain = 0
KPA1 110657Z 16007KT 24/15 A3003 RMK A01 T02360147  RH  057%=      5-min Rain = 0
KPA1 110658Z 16007KT 24/15 A3003 RMK A01 T02360147  RH  057%=      5-min Rain = 0
KPA1 110659Z 16007KT 24/15 A3003 RMK A01 T02360147  RH  058%=      5-min Rain = 0
KPA1 110700Z 16007KT 24/15 A3003 RMK A01 T02350147  RH  058%=      5-min Rain = 0
KPA1 110701Z 16007KT 24/15 A3003 RMK A01 T02350147  RH  058%=      5-min Rain = 0
KPA1 110702Z 16007KT 24/15 A3003 RMK A01 T02350148  RH  058%=      5-min Rain = 0
KPA1 110703Z 16007KT 23/15 A3003 RMK A01 T02340147  RH  058%=      5-min Rain = 0
KPA1 110704Z 16007KT 24/15 A3002 RMK A01 T02350147  RH  058%=      5-min Rain = 0
KPA1 110705Z 16007KT 23/15 A3002 RMK A01 T02340147  RH  058%=      5-min Rain = 0
KPA1 110706Z 16007KT 23/15 A3002 RMK A01 T02340147  RH  058%=      5-min Rain = 0
KPA1 110707Z 16007KT 23/15 A3002 RMK A01 T02330147  RH  059%=      5-min Rain = 0
KPA1 110708Z 16006KT 23/15 A3002 RMK A01 T02330147  RH  059%=      5-min Rain = 0
KPA1 110709Z 16006KT 23/15 A3002 RMK A01 T02320148  RH  059%=      5-min Rain = 0
KPA1 110710Z 16006KT 23/15 A3002 RMK A01 T02310148  RH  059%=      5-min Rain = 0
KPA1 110711Z 16006KT 23/15 A3002 RMK A01 T02310148  RH  059%=      5-min Rain = 0
KPA1 110712Z 16006KT 23/15 A3002 RMK A01 T02300148  RH  060%=      5-min Rain = 0
KPA1 110713Z 16006KT 23/15 A3002 RMK A01 T02300148  RH  060%=      5-min Rain = 0
KPA1 110714Z 16006KT 23/15 A3002 RMK A01 T02290148  RH  060%=      5-min Rain = 0
KPA1 110715Z 16006KT 23/15 A3003 RMK A01 T02290148  RH  060%=      5-min Rain = 0
KPA1 110716Z 16006KT 23/15 A3003 RMK A01 T02280148  RH  061%=      5-min Rain = 0
KPA1 110717Z 16006KT 23/15 A3003 RMK A01 T02270148  RH  061%=      5-min Rain = 0
KPA1 110718Z 16006KT 23/15 A3003 RMK A01 T02270148  RH  061%=      5-min Rain = 0
KPA1 110719Z 16006KT 23/15 A3003 RMK A01 T02270149  RH  061%=      5-min Rain = 0
KPA1 110720Z 16007KT 23/15 A3002 RMK A01 T02260148  RH  061%=      5-min Rain = 0
KPA1 110721Z 16007KT 23/15 A3002 RMK A01 T02260149  RH  062%=      5-min Rain = 0
KPA1 110722Z 16007KT 23/15 A3002 RMK A01 T02250148  RH  062%=      5-min Rain = 0
KPA1 110723Z 16007KT 23/15 A3002 RMK A01 T02250149  RH  062%=      5-min Rain = 0
KPA1 110724Z 16007KT 22/15 A3002 RMK A01 T02240149  RH  062%=      5-min Rain = 0
KPA1 110725Z 16007KT 22/15 A3002 RMK A01 T02230149  RH  063%=      5-min Rain = 0
KPA1 110726Z 16007KT 22/15 A3002 RMK A01 T02230149  RH  063%=      5-min Rain = 0
KPA1 110727Z 16008KT 22/15 A3002 RMK A01 T02220149  RH  063%=      5-min Rain = 0
KPA1 110728Z 16008KT 22/15 A3003 RMK A01 T02220149  RH  063%=      5-min Rain = 0
KPA1 110729Z 16008KT 22/15 A3003 RMK A01 T02210149  RH  063%=      5-min Rain = 0
KPA1 110730Z 16008KT 22/15 A3003 RMK A01 T02210148  RH  063%=      5-min Rain = 0
KPA1 110731Z 16008KT 22/15 A3002 RMK A01 T02220149  RH  063%=      5-min Rain = 0
KPA1 110732Z 16008KT 22/15 A3002 RMK A01 T02210148  RH  063%=      5-min Rain = 0
KPA1 110733Z 16008KT 22/15 A3002 RMK A01 T02210148  RH  063%=      5-min Rain = 0
KPA1 110734Z 16008KT 22/15 A3002 RMK A01 T02210148  RH  063%=      5-min Rain = 0
KPA1 110735Z 16008KT 22/15 A3002 RMK A01 T02200148  RH  064%=      5-min Rain = 0
KPA1 110736Z 16008KT 22/15 A3002 RMK A01 T02200148  RH  064%=      5-min Rain = 0
KPA1 110737Z 16008KT 22/15 A3002 RMK A01 T02200149  RH  064%=      5-min Rain = 0
KPA1 110738Z 15008KT 22/15 A3002 RMK A01 T02200149  RH  064%=      5-min Rain = 0
KPA1 110739Z 16008KT 22/15 A3002 RMK A01 T02200149  RH  064%=      5-min Rain = 0
KPA1 110740Z 15008KT 22/15 A3003 RMK A01 T02200149  RH  064%=      5-min Rain = 0
KPA1 110741Z 16007KT 22/15 A3003 RMK A01 T02210150  RH  064%=      5-min Rain = 0
KPA1 110742Z 16007KT 22/15 A3003 RMK A01 T02210150  RH  064%=      5-min Rain = 0
KPA1 110743Z 16007KT 22/15 A3003 RMK A01 T02210150  RH  064%=      5-min Rain = 0
KPA1 110744Z 16007KT 22/15 A3003 RMK A01 T02210150  RH  064%=      5-min Rain = 0
KPA1 110745Z 16007KT 22/15 A3003 RMK A01 T02210150  RH  064%=      5-min Rain = 0
KPA1 110746Z 16007KT 22/15 A3003 RMK A01 T02210150  RH  064%=      5-min Rain = 0
KPA1 110747Z 16007KT 22/15 A3003 RMK A01 T02210150  RH  064%=      5-min Rain = 0
KPA1 110748Z 15007KT 22/15 A3002 RMK A01 T02210150  RH  064%=      5-min Rain = 0
KPA1 110749Z 15008KT 22/15 A3002 RMK A01 T02210151  RH  064%=      5-min Rain = 0
KPA1 110750Z 15008KT 22/15 A3002 RMK A01 T02210151  RH  064%=      5-min Rain = 0
KPA1 110751Z 15008KT 22/15 A3002 RMK A01 T02210151  RH  064%=      5-min Rain = 0
KPA1 110752Z 15008KT 22/15 A3002 RMK A01 T02210151  RH  064%=      5-min Rain = 0
KPA1 110753Z 15008KT 22/15 A3002 RMK A01 T02210151  RH  064%=      5-min Rain = 0
KPA1 110754Z 15008KT 22/15 A3002 RMK A01 T02220150  RH  064%=      5-min Rain = 0
KPA1 110755Z 15008KT 22/15 A3002 RMK A01 T02230150  RH  064%=      5-min Rain = 0
KPA1 110756Z 15008KT 22/15 A3002 RMK A01 T02230150  RH  063%=      5-min Rain = 0
KPA1 110757Z 15008KT 22/15 A3002 RMK A01 T02230150  RH  063%=      5-min Rain = 0
KPA1 110758Z 15008KT 22/15 A3002 RMK A01 T02240150  RH  063%=      5-min Rain = 0
KPA1 110759Z 16008KT 22/15 A3002 RMK A01 T02240150  RH  063%=      5-min Rain = 0
KPA1 110800Z 15008KT 22/15 A3002 RMK A01 T02240150  RH  063%=      5-min Rain = 0
KPA1 110801Z 15008KT 22/15 A3002 RMK A01 T02240150  RH  063%=      5-min Rain = 0
KPA1 110802Z 15008KT 23/15 A3002 RMK A01 T02250151  RH  063%=      5-min Rain = 0
KPA1 110803Z 15008KT 22/15 A3002 RMK A01 T02240150  RH  063%=      5-min Rain = 0
KPA1 110804Z 15008KT 22/15 A3002 RMK A01 T02240150  RH  063%=      5-min Rain = 0
KPA1 110805Z 15008KT 22/15 A3002 RMK A01 T02240150  RH  063%=      5-min Rain = 0
KPA1 110806Z 15008KT 22/15 A3002 RMK A01 T02240150  RH  063%=      5-min Rain = 0
KPA1 110807Z 15008KT 22/15 A3002 RMK A01 T02240150  RH  063%=      5-min Rain = 0
KPA1 110808Z 15008KT 22/15 A3002 RMK A01 T02240150  RH  063%=      5-min Rain = 0
KPA1 110809Z 15008KT 22/15 A3002 RMK A01 T02240150  RH  063%=      5-min Rain = 0
KPA1 110810Z 15007KT 22/15 A3002 RMK A01 T02240150  RH  063%=      5-min Rain = 0
KPA1 110811Z 15007KT 22/15 A3002 RMK A01 T02240150  RH  063%=      5-min Rain = 0
KPA1 110812Z 15007KT 22/15 A3002 RMK A01 T02240151  RH  063%=      5-min Rain = 0
KPA1 110813Z 15007KT 22/15 A3002 RMK A01 T02230151  RH  064%=      5-min Rain = 0
KPA1 110814Z 15007KT 22/15 A3002 RMK A01 T02230151  RH  064%=      5-min Rain = 0
KPA1 110815Z 15007KT 22/15 A3002 RMK A01 T02220151  RH  064%=      5-min Rain = 0
KPA1 110816Z 15007KT 22/15 A3002 RMK A01 T02220151  RH  064%=      5-min Rain = 0
KPA1 110817Z 15007KT 22/15 A3002 RMK A01 T02220151  RH  064%=      5-min Rain = 0
KPA1 110818Z 15008KT 22/15 A3002 RMK A01 T02210151  RH  064%=      5-min Rain = 0
KPA1 110819Z 15008KT 22/15 A3002 RMK A01 T02210151  RH  064%=      5-min Rain = 0
KPA1 110820Z 15007KT 22/15 A3002 RMK A01 T02210151  RH  064%=      5-min Rain = 0
KPA1 110821Z 15007KT 22/15 A3002 RMK A01 T02210151  RH  064%=      5-min Rain = 0
KPA1 110822Z 15007KT 22/15 A3002 RMK A01 T02210151  RH  065%=      5-min Rain = 0
KPA1 110823Z 15007KT 22/15 A3002 RMK A01 T02210151  RH  065%=      5-min Rain = 0
KPA1 110824Z 15008KT 22/15 A3002 RMK A01 T02210151  RH  065%=      5-min Rain = 0
KPA1 110825Z 15007KT 22/15 A3002 RMK A01 T02200151  RH  064%=      5-min Rain = 0
KPA1 110826Z 15007KT 22/15 A3002 RMK A01 T02210150  RH  064%=      5-min Rain = 0
KPA1 110827Z 15007KT 22/15 A3002 RMK A01 T02210151  RH  064%=      5-min Rain = 0
KPA1 110828Z 15008KT 22/15 A3002 RMK A01 T02210151  RH  064%=      5-min Rain = 0
KPA1 110829Z 15007KT 22/15 A3002 RMK A01 T02220151  RH  064%=      5-min Rain = 0
KPA1 110830Z 15007KT 22/15 A3002 RMK A01 T02220151  RH  064%=      5-min Rain = 0
KPA1 110831Z 15007KT 22/15 A3002 RMK A01 T02220151  RH  064%=      5-min Rain = 0
KPA1 110832Z 15007KT 22/15 A3002 RMK A01 T02220151  RH  064%=      5-min Rain = 0
KPA1 110833Z 15007KT 22/15 A3002 RMK A01 T02220151  RH  064%=      5-min Rain = 0
KPA1 110834Z 15008KT 22/15 A3002 RMK A01 T02220151  RH  064%=      5-min Rain = 0
KPA1 110835Z 15007KT 22/15 A3002 RMK A01 T02210151  RH  064%=      5-min Rain = 0
KPA1 110836Z 15008KT 22/15 A3002 RMK A01 T02220151  RH  064%=      5-min Rain = 0
KPA1 110837Z 15008KT 22/15 A3002 RMK A01 T02220150  RH  064%=      5-min Rain = 0
KPA1 110838Z 15007KT 22/15 A3002 RMK A01 T02220150  RH  064%=      5-min Rain = 0
KPA1 110839Z 16007KT 22/15 A3002 RMK A01 T02220151  RH  064%=      5-min Rain = 0
KPA1 110840Z 16007KT 22/15 A3002 RMK A01 T02210151  RH  064%=      5-min Rain = 0
KPA1 110841Z 15007KT 22/15 A3002 RMK A01 T02210151  RH  065%=      5-min Rain = 0
KPA1 110842Z 16007KT 22/15 A3002 RMK A01 T02200151  RH  065%=      5-min Rain = 0
KPA1 110843Z 16007KT 22/15 A3002 RMK A01 T02200151  RH  065%=      5-min Rain = 0
KPA1 110844Z 16007KT 22/15 A3002 RMK A01 T02200151  RH  065%=      5-min Rain = 0
KPA1 110845Z 16006KT 22/15 A3002 RMK A01 T02190151  RH  065%=      5-min Rain = 0
KPA1 110846Z 16006KT 22/15 A3002 RMK A01 T02190151  RH  065%=      5-min Rain = 0
KPA1 110847Z 16006KT 22/15 A3002 RMK A01 T02180151  RH  065%=      5-min Rain = 0
KPA1 110848Z 16006KT 22/15 A3002 RMK A01 T02180151  RH  066%=      5-min Rain = 0
KPA1 110849Z 17007KT 22/15 A3002 RMK A01 T02170150  RH  066%=      5-min Rain = 0
KPA1 110850Z 17007KT 22/15 A3002 RMK A01 T02160150  RH  066%=      5-min Rain = 0
KPA1 110851Z 17007KT 22/15 A3002 RMK A01 T02160150  RH  066%=      5-min Rain = 0
KPA1 110852Z 17007KT 22/15 A3002 RMK A01 T02150150  RH  066%=      5-min Rain = 0
KPA1 110853Z 16007KT 21/15 A3001 RMK A01 T02140149  RH  066%=      5-min Rain = 0
KPA1 110854Z 16007KT 21/15 A3001 RMK A01 T02140149  RH  066%=      5-min Rain = 0
KPA1 110855Z 16007KT 21/15 A3001 RMK A01 T02140150  RH  066%=      5-min Rain = 0
KPA1 110856Z 16007KT 21/15 A3001 RMK A01 T02140149  RH  066%=      5-min Rain = 0
KPA1 110857Z 16007KT 21/15 A3001 RMK A01 T02140149  RH  067%=      5-min Rain = 0
KPA1 110858Z 16006KT 21/15 A3001 RMK A01 T02130149  RH  067%=      5-min Rain = 0
KPA1 110859Z 17006KT 21/15 A3001 RMK A01 T02120149  RH  067%=      5-min Rain = 0
KPA1 110900Z 17006KT 21/15 A3001 RMK A01 T02120149  RH  067%=      5-min Rain = 0
KPA1 110901Z 17006KT 21/15 A3002 RMK A01 T02120149  RH  067%=      5-min Rain = 0
KPA1 110902Z 17006KT 21/15 A3001 RMK A01 T02110149  RH  067%=      5-min Rain = 0
KPA1 110903Z 17005KT 21/15 A3001 RMK A01 T02110149  RH  068%=      5-min Rain = 0
KPA1 110904Z 17005KT 21/15 A3001 RMK A01 T02100149  RH  068%=      5-min Rain = 0
KPA1 110905Z 17005KT 21/15 A3001 RMK A01 T02090149  RH  068%=      5-min Rain = 0
KPA1 110906Z 17005KT 21/15 A3001 RMK A01 T02080149  RH  069%=      5-min Rain = 0
KPA1 110907Z 17005KT 21/15 A3001 RMK A01 T02070149  RH  069%=      5-min Rain = 0
KPA1 110908Z 17005KT 21/15 A3001 RMK A01 T02070149  RH  069%=      5-min Rain = 0
KPA1 110909Z 17006KT 21/15 A3001 RMK A01 T02060149  RH  070%=      5-min Rain = 0
KPA1 110910Z 16006KT 21/15 A3001 RMK A01 T02050150  RH  070%=      5-min Rain = 0
KPA1 110911Z 16006KT 20/15 A3001 RMK A01 T02040150  RH  071%=      5-min Rain = 0
KPA1 110912Z 16006KT 20/15 A3001 RMK A01 T02040150  RH  071%=      5-min Rain = 0
KPA1 110913Z 16006KT 20/15 A3001 RMK A01 T02040150  RH  071%=      5-min Rain = 0
KPA1 110914Z 16005KT 20/15 A3002 RMK A01 T02040150  RH  071%=      5-min Rain = 0
KPA1 110915Z 16005KT 20/15 A3002 RMK A01 T02030150  RH  071%=      5-min Rain = 0
KPA1 110916Z 16005KT 20/15 A3002 RMK A01 T02030150  RH  072%=      5-min Rain = 0
KPA1 110917Z 16005KT 20/15 A3002 RMK A01 T02030151  RH  072%=      5-min Rain = 0
KPA1 110918Z 16005KT 20/15 A3002 RMK A01 T02030151  RH  072%=      5-min Rain = 0
KPA1 110919Z 16005KT 20/15 A3002 RMK A01 T02040152  RH  072%=      5-min Rain = 0
KPA1 110920Z 16005KT 20/15 A3002 RMK A01 T02030152  RH  072%=      5-min Rain = 0
KPA1 110921Z 15006KT 20/15 A3002 RMK A01 T02030152  RH  072%=      5-min Rain = 0
KPA1 110922Z 16006KT 20/15 A3002 RMK A01 T02030152  RH  073%=      5-min Rain = 0
KPA1 110923Z 15006KT 20/15 A3002 RMK A01 T02030152  RH  073%=      5-min Rain = 0
KPA1 110924Z 15005KT 20/15 A3002 RMK A01 T02030152  RH  072%=      5-min Rain = 0
KPA1 110925Z 16005KT 20/15 A3002 RMK A01 T02030152  RH  072%=      5-min Rain = 0
KPA1 110926Z 16005KT 20/15 A3002 RMK A01 T02040152  RH  072%=      5-min Rain = 0
KPA1 110927Z 16005KT 20/15 A3002 RMK A01 T02040152  RH  072%=      5-min Rain = 0
KPA1 110928Z 17005KT 20/15 A3002 RMK A01 T02040152  RH  072%=      5-min Rain = 0
KPA1 110929Z 17004KT 20/15 A3002 RMK A01 T02030151  RH  072%=      5-min Rain = 0
KPA1 110930Z 17004KT 20/15 A3002 RMK A01 T02030152  RH  072%=      5-min Rain = 0
KPA1 110931Z 17003KT 20/15 A3002 RMK A01 T02020151  RH  072%=      5-min Rain = 0
KPA1 110932Z 17003KT 20/15 A3002 RMK A01 T02020151  RH  072%=      5-min Rain = 0
KPA1 110933Z 16003KT 20/15 A3002 RMK A01 T02020151  RH  073%=      5-min Rain = 0
KPA1 110934Z 16003KT 20/15 A3002 RMK A01 T02010151  RH  073%=      5-min Rain = 0
KPA1 110935Z 16003KT 20/15 A3002 RMK A01 T02010151  RH  073%=      5-min Rain = 0
KPA1 110936Z 16003KT 20/15 A3002 RMK A01 T02010151  RH  073%=      5-min Rain = 0
KPA1 110937Z 16003KT 20/15 A3002 RMK A01 T02010151  RH  073%=      5-min Rain = 0
KPA1 110938Z 16003KT 20/15 A3002 RMK A01 T02010151  RH  073%=      5-min Rain = 0
KPA1 110939Z 15004KT 20/15 A3002 RMK A01 T02000152  RH  073%=      5-min Rain = 0
KPA1 110940Z 15004KT 20/15 A3002 RMK A01 T02000152  RH  074%=      5-min Rain = 0
KPA1 110941Z 15005KT 20/15 A3002 RMK A01 T02010153  RH  074%=      5-min Rain = 0
KPA1 110942Z 15005KT 20/15 A3002 RMK A01 T02010154  RH  074%=      5-min Rain = 0
KPA1 110943Z 15005KT 20/16 A3002 RMK A01 T02010155  RH  075%=      5-min Rain = 0
KPA1 110944Z 15006KT 20/16 A3002 RMK A01 T02010155  RH  075%=      5-min Rain = 0
KPA1 110945Z 15006KT 20/16 A3002 RMK A01 T02010155  RH  075%=      5-min Rain = 0
KPA1 110946Z 15006KT 20/16 A3002 RMK A01 T02010155  RH  075%=      5-min Rain = 0
KPA1 110947Z 15006KT 20/16 A3002 RMK A01 T02000155  RH  075%=      5-min Rain = 0
KPA1 110948Z 15006KT 20/16 A3002 RMK A01 T02000155  RH  075%=      5-min Rain = 0
KPA1 110949Z 15006KT 20/16 A3002 RMK A01 T02010156  RH  075%=      5-min Rain = 0
KPA1 110950Z 15005KT 20/16 A3002 RMK A01 T02000157  RH  076%=      5-min Rain = 0
KPA1 110951Z 15005KT 20/16 A3002 RMK A01 T02000157  RH  076%=      5-min Rain = 0
KPA1 110952Z 15005KT 20/16 A3002 RMK A01 T01990157  RH  077%=      5-min Rain = 0
KPA1 110953Z 15005KT 20/16 A3002 RMK A01 T01990157  RH  077%=      5-min Rain = 0
KPA1 110954Z 16005KT 20/16 A3002 RMK A01 T01980157  RH  077%=      5-min Rain = 0
KPA1 110955Z 16005KT 20/16 A3002 RMK A01 T01980157  RH  077%=      5-min Rain = 0
KPA1 110956Z 16005KT 20/16 A3002 RMK A01 T01970157  RH  078%=      5-min Rain = 0
KPA1 110957Z 16005KT 20/16 A3002 RMK A01 T01960157  RH  078%=      5-min Rain = 0
KPA1 110958Z 16005KT 20/16 A3002 RMK A01 T01960157  RH  078%=      5-min Rain = 0
KPA1 110959Z 16005KT 20/16 A3002 RMK A01 T01950157  RH  078%=      5-min Rain = 0
KPA1 111000Z 16005KT 20/16 A3002 RMK A01 T01950157  RH  079%=      5-min Rain = 0
KPA1 111001Z 16005KT 20/16 A3002 RMK A01 T01950157  RH  079%=      5-min Rain = 0
KPA1 111002Z 16005KT 19/16 A3002 RMK A01 T01940157  RH  079%=      5-min Rain = 0
KPA1 111003Z 17005KT 19/16 A3002 RMK A01 T01940158  RH  079%=      5-min Rain = 0
KPA1 111004Z 17005KT 19/16 A3002 RMK A01 T01940157  RH  079%=      5-min Rain = 0
KPA1 111005Z 16005KT 19/16 A3002 RMK A01 T01930157  RH  080%=      5-min Rain = 0
KPA1 111006Z 16005KT 19/16 A3002 RMK A01 T01930157  RH  080%=      5-min Rain = 0
KPA1 111007Z 16005KT 19/16 A3002 RMK A01 T01930157  RH  079%=      5-min Rain = 0
KPA1 111008Z 16005KT 19/16 A3002 RMK A01 T01920156  RH  079%=      5-min Rain = 0
KPA1 111009Z 16005KT 19/16 A3002 RMK A01 T01920156  RH  080%=      5-min Rain = 0
KPA1 111010Z 17005KT 19/16 A3002 RMK A01 T01920156  RH  080%=      5-min Rain = 0
KPA1 111011Z 17004KT 19/16 A3002 RMK A01 T01910155  RH  079%=      5-min Rain = 0
KPA1 111012Z 17004KT 19/16 A3002 RMK A01 T01920155  RH  079%=      5-min Rain = 0
KPA1 111013Z 17005KT 19/16 A3002 RMK A01 T01910155  RH  079%=      5-min Rain = 0
KPA1 111014Z 17004KT 19/16 A3002 RMK A01 T01910155  RH  079%=      5-min Rain = 0
KPA1 111015Z 17004KT 19/16 A3003 RMK A01 T01910155  RH  079%=      5-min Rain = 0
KPA1 111016Z 17004KT 19/15 A3003 RMK A01 T01910154  RH  079%=      5-min Rain = 0
KPA1 111017Z 17004KT 19/15 A3003 RMK A01 T01910154  RH  079%=      5-min Rain = 0
KPA1 111018Z 17004KT 19/15 A3003 RMK A01 T01910154  RH  079%=      5-min Rain = 0
KPA1 111019Z 17004KT 19/15 A3003 RMK A01 T01920154  RH  079%=      5-min Rain = 0
KPA1 111020Z 17004KT 19/15 A3003 RMK A01 T01910154  RH  079%=      5-min Rain = 0
KPA1 111021Z 17004KT 19/15 A3003 RMK A01 T01910153  RH  079%=      5-min Rain = 0
KPA1 111022Z 16004KT 19/15 A3003 RMK A01 T01910153  RH  079%=      5-min Rain = 0
KPA1 111023Z 16004KT 19/15 A3003 RMK A01 T01910153  RH  079%=      5-min Rain = 0
KPA1 111024Z 16003KT 19/15 A3003 RMK A01 T01910153  RH  079%=      5-min Rain = 0
KPA1 111025Z 16003KT 19/15 A3003 RMK A01 T01910154  RH  079%=      5-min Rain = 0
KPA1 111026Z 16003KT 19/15 A3003 RMK A01 T01910154  RH  079%=      5-min Rain = 0
KPA1 111027Z 16003KT 19/15 A3003 RMK A01 T01910154  RH  079%=      5-min Rain = 0
KPA1 111028Z 16003KT 19/15 A3003 RMK A01 T01910154  RH  079%=      5-min Rain = 0
KPA1 111029Z 16003KT 19/15 A3003 RMK A01 T01910154  RH  079%=      5-min Rain = 0
KPA1 111030Z 15003KT 19/16 A3003 RMK A01 T01910155  RH  079%=      5-min Rain = 0
KPA1 111031Z 15003KT 19/16 A3003 RMK A01 T01910155  RH  079%=      5-min Rain = 0
KPA1 111032Z 15003KT 19/16 A3003 RMK A01 T01910155  RH  080%=      5-min Rain = 0
KPA1 111033Z 15004KT 19/16 A3003 RMK A01 T01910155  RH  080%=      5-min Rain = 0
KPA1 111034Z 15004KT 19/16 A3003 RMK A01 T01920157  RH  080%=      5-min Rain = 0
KPA1 111035Z 15004KT 19/16 A3003 RMK A01 T01920158  RH  080%=      5-min Rain = 0
KPA1 111036Z 15004KT 19/16 A3003 RMK A01 T01930158  RH  080%=      5-min Rain = 0
KPA1 111037Z 15004KT 19/16 A3003 RMK A01 T01940159  RH  080%=      5-min Rain = 0
KPA1 111038Z 16004KT 20/16 A3003 RMK A01 T01950159  RH  080%=      5-min Rain = 0
KPA1 111039Z 16004KT 20/16 A3003 RMK A01 T01950159  RH  080%=      5-min Rain = 0
KPA1 111040Z 15004KT 20/16 A3003 RMK A01 T01950159  RH  080%=      5-min Rain = 0
KPA1 111041Z 15004KT 20/16 A3003 RMK A01 T01960159  RH  079%=      5-min Rain = 0
KPA1 111042Z 16004KT 20/16 A3003 RMK A01 T01960159  RH  079%=      5-min Rain = 0
KPA1 111043Z 16004KT 20/16 A3003 RMK A01 T01960159  RH  079%=      5-min Rain = 0
KPA1 111044Z 16003KT 20/16 A3003 RMK A01 T01960159  RH  079%=      5-min Rain = 0
KPA1 111045Z 16003KT 20/16 A3003 RMK A01 T01970159  RH  079%=      5-min Rain = 0
KPA1 111046Z 16003KT 20/16 A3003 RMK A01 T01970159  RH  078%=      5-min Rain = 0
KPA1 111047Z 16004KT 20/16 A3003 RMK A01 T01970159  RH  078%=      5-min Rain = 0
KPA1 111048Z 16004KT 20/16 A3003 RMK A01 T01980159  RH  078%=      5-min Rain = 0
KPA1 111049Z 16004KT 20/16 A3003 RMK A01 T01980158  RH  078%=      5-min Rain = 0
KPA1 111050Z 16004KT 20/16 A3003 RMK A01 T01980159  RH  078%=      5-min Rain = 0
KPA1 111051Z 16004KT 20/16 A3003 RMK A01 T01980159  RH  078%=      5-min Rain = 0
KPA1 111052Z 16003KT 20/16 A3003 RMK A01 T01990159  RH  078%=      5-min Rain = 0
KPA1 111053Z 17003KT 20/16 A3003 RMK A01 T01990159  RH  078%=      5-min Rain = 0
KPA1 111054Z 17003KT 20/16 A3003 RMK A01 T01990159  RH  078%=      5-min Rain = 0
KPA1 111055Z 17003KT 20/16 A3004 RMK A01 T01990159  RH  078%=      5-min Rain = 0
KPA1 111056Z 17003KT 20/16 A3004 RMK A01 T01990158  RH  078%=      5-min Rain = 0
KPA1 111057Z 17003KT 20/16 A3004 RMK A01 T01990158  RH  077%=      5-min Rain = 0
KPA1 111058Z 17003KT 20/16 A3004 RMK A01 T01990158  RH  077%=      5-min Rain = 0
KPA1 111059Z 17002KT 20/16 A3004 RMK A01 T01990158  RH  077%=      5-min Rain = 0
KPA1 111100Z 17003KT 20/16 A3004 RMK A01 T01990158  RH  077%=      5-min Rain = 0
KPA1 111101Z 16003KT 20/16 A3004 RMK A01 T01990157  RH  077%=      5-min Rain = 0
KPA1 111102Z 16003KT 20/16 A3004 RMK A01 T01990157  RH  077%=      5-min Rain = 0
KPA1 111103Z 16003KT 20/16 A3004 RMK A01 T01990157  RH  076%=      5-min Rain = 0
KPA1 111104Z 16003KT 20/16 A3004 RMK A01 T02000157  RH  076%=      5-min Rain = 0
KPA1 111105Z 16003KT 20/16 A3004 RMK A01 T02000157  RH  076%=      5-min Rain = 0
KPA1 111106Z 16002KT 20/16 A3004 RMK A01 T02000157  RH  076%=      5-min Rain = 0
KPA1 111107Z 16003KT 20/16 A3004 RMK A01 T02010157  RH  076%=      5-min Rain = 0
KPA1 111108Z 17002KT 20/16 A3004 RMK A01 T02010157  RH  076%=      5-min Rain = 0
KPA1 111109Z 17002KT 20/16 A3004 RMK A01 T02010157  RH  076%=      5-min Rain = 0
KPA1 111110Z 17002KT 20/16 A3004 RMK A01 T02000157  RH  076%=      5-min Rain = 0
KPA1 111111Z 16002KT 20/16 A3004 RMK A01 T02000157  RH  076%=      5-min Rain = 0
KPA1 111112Z 16002KT 20/16 A3004 RMK A01 T02000158  RH  076%=      5-min Rain = 0
KPA1 111113Z 16003KT 20/16 A3004 RMK A01 T02010158  RH  076%=      5-min Rain = 0
KPA1 111114Z 16003KT 20/16 A3004 RMK A01 T02010158  RH  076%=      5-min Rain = 0
KPA1 111115Z 16003KT 20/16 A3004 RMK A01 T02000159  RH  077%=      5-min Rain = 0
KPA1 111116Z 16004KT 20/16 A3004 RMK A01 T02000159  RH  077%=      5-min Rain = 0
KPA1 111117Z 16004KT 20/16 A3004 RMK A01 T01990160  RH  078%=      5-min Rain = 0
KPA1 111118Z 16004KT 20/16 A3004 RMK A01 T01980160  RH  078%=      5-min Rain = 0
KPA1 111119Z 16004KT 20/16 A3004 RMK A01 T01970160  RH  079%=      5-min Rain = 0
KPA1 111120Z 16004KT 20/16 A3004 RMK A01 T01960160  RH  079%=      5-min Rain = 0
KPA1 111121Z 16004KT 20/16 A3004 RMK A01 T01960160  RH  080%=      5-min Rain = 0
KPA1 111122Z 16004KT 20/16 A3004 RMK A01 T01950160  RH  080%=      5-min Rain = 0
KPA1 111123Z 16005KT 19/16 A3004 RMK A01 T01940160  RH  080%=      5-min Rain = 0
KPA1 111124Z 16005KT 19/16 A3004 RMK A01 T01940161  RH  081%=      5-min Rain = 0
KPA1 111125Z 16005KT 19/16 A3004 RMK A01 T01930160  RH  081%=      5-min Rain = 0
KPA1 111126Z 16005KT 19/16 A3004 RMK A01 T01930161  RH  082%=      5-min Rain = 0
KPA1 111127Z 16005KT 19/16 A3004 RMK A01 T01920161  RH  082%=      5-min Rain = 0
KPA1 111128Z 16005KT 19/16 A3004 RMK A01 T01920161  RH  083%=      5-min Rain = 0
KPA1 111129Z 16005KT 19/16 A3004 RMK A01 T01910161  RH  083%=      5-min Rain = 0
KPA1 111130Z 16005KT 19/16 A3004 RMK A01 T01910161  RH  083%=      5-min Rain = 0
KPA1 111131Z 17005KT 19/16 A3004 RMK A01 T01900162  RH  083%=      5-min Rain = 0
KPA1 111132Z 17005KT 19/16 A3004 RMK A01 T01900162  RH  084%=      5-min Rain = 0
KPA1 111133Z 17005KT 19/16 A3004 RMK A01 T01900162  RH  084%=      5-min Rain = 0
KPA1 111134Z 17005KT 19/16 A3004 RMK A01 T01890162  RH  084%=      5-min Rain = 0
KPA1 111135Z 17005KT 19/16 A3004 RMK A01 T01890161  RH  084%=      5-min Rain = 0
KPA1 111136Z 18005KT 19/16 A3004 RMK A01 T01890161  RH  084%=      5-min Rain = 0
KPA1 111137Z 18005KT 19/16 A3004 RMK A01 T01880160  RH  084%=      5-min Rain = 0
KPA1 111138Z 18005KT 19/16 A3004 RMK A01 T01880160  RH  084%=      5-min Rain = 0
KPA1 111139Z 18004KT 19/16 A3004 RMK A01 T01870161  RH  084%=      5-min Rain = 0
KPA1 111140Z 19004KT 19/16 A3004 RMK A01 T01870161  RH  085%=      5-min Rain = 0
KPA1 111141Z 19004KT 19/16 A3004 RMK A01 T01860161  RH  085%=      5-min Rain = 0
KPA1 111142Z 18004KT 19/16 A3004 RMK A01 T01860161  RH  085%=      5-min Rain = 0
KPA1 111143Z 18005KT 19/16 A3004 RMK A01 T01860161  RH  086%=      5-min Rain = 0
KPA1 111144Z 18004KT 19/16 A3004 RMK A01 T01850161  RH  086%=      5-min Rain = 0
KPA1 111145Z 18005KT 19/16 A3004 RMK A01 T01850161  RH  086%=      5-min Rain = 0
KPA1 111146Z 19004KT 19/16 A3004 RMK A01 T01850162  RH  086%=      5-min Rain = 0
KPA1 111147Z 18005KT 19/16 A3004 RMK A01 T01850162  RH  087%=      5-min Rain = 0
KPA1 111148Z 18005KT 19/16 A3004 RMK A01 T01850162  RH  087%=      5-min Rain = 0
KPA1 111149Z 18005KT 19/16 A3004 RMK A01 T01850163  RH  087%=      5-min Rain = 0
KPA1 111150Z 18005KT 19/16 A3004 RMK A01 T01850162  RH  086%=      5-min Rain = 0
KPA1 111151Z 18005KT 19/16 A3004 RMK A01 T01860162  RH  086%=      5-min Rain = 0
KPA1 111152Z 18005KT 19/16 A3004 RMK A01 T01860163  RH  087%=      5-min Rain = 0
KPA1 111153Z 18005KT 19/16 A3004 RMK A01 T01860163  RH  087%=      5-min Rain = 0
KPA1 111154Z 18005KT 19/16 A3004 RMK A01 T01860163  RH  086%=      5-min Rain = 0
KPA1 111155Z 18005KT 19/16 A3004 RMK A01 T01860162  RH  086%=      5-min Rain = 0
KPA1 111156Z 18005KT 19/16 A3004 RMK A01 T01860162  RH  086%=      5-min Rain = 0
KPA1 111157Z 18005KT 19/16 A3004 RMK A01 T01860162  RH  086%=      5-min Rain = 0
KPA1 111158Z 19005KT 19/16 A3004 RMK A01 T01860162  RH  086%=      5-min Rain = 0
KPA1 111159Z 19005KT 19/16 A3005 RMK A01 T01870163  RH  086%=      5-min Rain = 0
KPA1 111200Z 18004KT 19/16 A3005 RMK A01 T01870163  RH  086%=      5-min Rain = 0
KPA1 111201Z 18005KT 19/16 A3005 RMK A01 T01870164  RH  086%=      5-min Rain = 0
KPA1 111202Z 18005KT 19/16 A3005 RMK A01 T01870164  RH  086%=      5-min Rain = 0
KPA1 111203Z 18005KT 19/16 A3005 RMK A01 T01880163  RH  086%=      5-min Rain = 0
KPA1 111204Z 18005KT 19/16 A3005 RMK A01 T01880163  RH  085%=      5-min Rain = 0
KPA1 111205Z 18004KT 19/16 A3005 RMK A01 T01890164  RH  085%=      5-min Rain = 0
KPA1 111206Z 19004KT 19/17 A3005 RMK A01 T01910165  RH  085%=      5-min Rain = 0
KPA1 111207Z 18004KT 19/17 A3005 RMK A01 T01920165  RH  085%=      5-min Rain = 0
KPA1 111208Z 19005KT 19/17 A3005 RMK A01 T01930166  RH  085%=      5-min Rain = 0
KPA1 111209Z 19005KT 19/17 A3005 RMK A01 T01940166  RH  084%=      5-min Rain = 0
KPA1 111210Z 18005KT 20/17 A3005 RMK A01 T01950166  RH  083%=      5-min Rain = 0
KPA1 111211Z 18005KT 20/17 A3005 RMK A01 T01960165  RH  083%=      5-min Rain = 0
KPA1 111212Z 19005KT 20/17 A3005 RMK A01 T01970166  RH  082%=      5-min Rain = 0
KPA1 111213Z 19005KT 20/17 A3005 RMK A01 T01980166  RH  082%=      5-min Rain = 0
KPA1 111214Z 19005KT 20/17 A3005 RMK A01 T01990166  RH  082%=      5-min Rain = 0
KPA1 111215Z 18006KT 20/17 A3005 RMK A01 T02000167  RH  081%=      5-min Rain = 0
KPA1 111216Z 19006KT 20/17 A3005 RMK A01 T02020167  RH  080%=      5-min Rain = 0
KPA1 111217Z 19006KT 20/17 A3005 RMK A01 T02040167  RH  080%=      5-min Rain = 0
KPA1 111218Z 19006KT 21/17 A3005 RMK A01 T02050168  RH  079%=      5-min Rain = 0
KPA1 111219Z 19006KT 21/17 A3005 RMK A01 T02060168  RH  079%=      5-min Rain = 0
KPA1 111220Z 18006KT 21/17 A3005 RMK A01 T02060168  RH  078%=      5-min Rain = 0
KPA1 111221Z 18006KT 21/17 A3005 RMK A01 T02070168  RH  078%=      5-min Rain = 0
KPA1 111222Z 18006KT 21/17 A3005 RMK A01 T02080168  RH  078%=      5-min Rain = 0
KPA1 111223Z 19006KT 21/17 A3005 RMK A01 T02090168  RH  078%=      5-min Rain = 0
KPA1 111224Z 19006KT 21/17 A3005 RMK A01 T02090168  RH  077%=      5-min Rain = 0
KPA1 111225Z 19006KT 21/17 A3005 RMK A01 T02090168  RH  077%=      5-min Rain = 0
KPA1 111226Z 19006KT 21/17 A3005 RMK A01 T02100169  RH  077%=      5-min Rain = 0
KPA1 111227Z 19006KT 21/17 A3005 RMK A01 T02110169  RH  077%=      5-min Rain = 0
KPA1 111228Z 20006KT 21/17 A3005 RMK A01 T02110169  RH  077%=      5-min Rain = 0
KPA1 111229Z 20006KT 21/17 A3005 RMK A01 T02120170  RH  077%=      5-min Rain = 0
KPA1 111230Z 20006KT 21/17 A3005 RMK A01 T02110170  RH  077%=      5-min Rain = 0
KPA1 111231Z 20006KT 21/17 A3005 RMK A01 T02110170  RH  077%=      5-min Rain = 0
KPA1 111232Z 20006KT 21/17 A3005 RMK A01 T02110170  RH  077%=      5-min Rain = 0
KPA1 111233Z 20006KT 21/17 A3005 RMK A01 T02110171  RH  078%=      5-min Rain = 0
KPA1 111234Z 20006KT 21/17 A3005 RMK A01 T02110170  RH  078%=      5-min Rain = 0
KPA1 111235Z 19007KT 21/17 A3005 RMK A01 T02110170  RH  077%=      5-min Rain = 0
KPA1 111236Z 19007KT 21/17 A3005 RMK A01 T02110169  RH  077%=      5-min Rain = 0
KPA1 111237Z 19007KT 21/17 A3005 RMK A01 T02120169  RH  076%=      5-min Rain = 0
KPA1 111238Z 19007KT 21/17 A3005 RMK A01 T02130169  RH  076%=      5-min Rain = 0
KPA1 111239Z 19007KT 21/17 A3005 RMK A01 T02140169  RH  075%=      5-min Rain = 0
KPA1 111240Z 19007KT 22/17 A3005 RMK A01 T02150169  RH  075%=      5-min Rain = 0
KPA1 111241Z 19007KT 22/17 A3005 RMK A01 T02160169  RH  075%=      5-min Rain = 0
KPA1 111242Z 19007KT 22/17 A3005 RMK A01 T02170169  RH  074%=      5-min Rain = 0
KPA1 111243Z 20007KT 22/17 A3005 RMK A01 T02180170  RH  074%=      5-min Rain = 0
KPA1 111244Z 20007KT 22/17 A3005 RMK A01 T02180170  RH  074%=      5-min Rain = 0
KPA1 111245Z 19007KT 22/17 A3005 RMK A01 T02190170  RH  073%=      5-min Rain = 0
KPA1 111246Z 19006KT 22/17 A3005 RMK A01 T02200170  RH  073%=      5-min Rain = 0
KPA1 111247Z 19007KT 22/17 A3005 RMK A01 T02210170  RH  073%=      5-min Rain = 0
KPA1 111248Z 19006KT 22/17 A3005 RMK A01 T02220169  RH  072%=      5-min Rain = 0
KPA1 111249Z 20006KT 23/17 A3005 RMK A01 T02250170  RH  071%=      5-min Rain = 0
KPA1 111250Z 20005KT 23/17 A3005 RMK A01 T02260171  RH  071%=      5-min Rain = 0
KPA1 111251Z 20006KT 23/17 A3005 RMK A01 T02250171  RH  071%=      5-min Rain = 0
KPA1 111252Z 20006KT 23/17 A3005 RMK A01 T02260172  RH  071%=      5-min Rain = 0
KPA1 111253Z 20006KT 23/17 A3005 RMK A01 T02260172  RH  071%=      5-min Rain = 0
KPA1 111254Z 20006KT 23/17 A3005 RMK A01 T02270172  RH  071%=      5-min Rain = 0
KPA1 111255Z 21005KT 23/17 A3006 RMK A01 T02280173  RH  071%=      5-min Rain = 0
KPA1 111256Z 21005KT 23/17 A3006 RMK A01 T02290173  RH  071%=      5-min Rain = 0
KPA1 111257Z 21004KT 23/17 A3006 RMK A01 T02300174  RH  071%=      5-min Rain = 0
KPA1 111258Z 22004KT 23/17 A3006 RMK A01 T02310174  RH  070%=      5-min Rain = 0
KPA1 111259Z 21004KT 23/17 A3006 RMK A01 T02310174  RH  070%=      5-min Rain = 0
KPA1 111300Z 21004KT 23/17 A3006 RMK A01 T02320174  RH  070%=      5-min Rain = 0
KPA1 111301Z 21004KT 23/18 A3006 RMK A01 T02330175  RH  070%=      5-min Rain = 0
KPA1 111302Z 21004KT 23/18 A3006 RMK A01 T02340176  RH  070%=      5-min Rain = 0
KPA1 111303Z 22004KT 24/18 A3006 RMK A01 T02350177  RH  070%=      5-min Rain = 0
KPA1 111304Z 22005KT 24/18 A3006 RMK A01 T02350176  RH  069%=      5-min Rain = 0
KPA1 111305Z 22005KT 24/18 A3006 RMK A01 T02360177  RH  070%=      5-min Rain = 0
KPA1 111306Z 22005KT 24/18 A3006 RMK A01 T02370177  RH  069%=      5-min Rain = 0
KPA1 111307Z 22005KT 24/18 A3006 RMK A01 T02390176  RH  068%=      5-min Rain = 0
KPA1 111308Z 22005KT 24/18 A3006 RMK A01 T02400177  RH  068%=      5-min Rain = 0
KPA1 111309Z 22004KT 24/18 A3006 RMK A01 T02410177  RH  067%=      5-min Rain = 0
KPA1 111310Z 22004KT 24/18 A3006 RMK A01 T02430177  RH  067%=      5-min Rain = 0
KPA1 111311Z 23005KT 25/18 A3006 RMK A01 T02450177  RH  066%=      5-min Rain = 0
KPA1 111312Z 23005KT 25/18 A3006 RMK A01 T02460177  RH  065%=      5-min Rain = 0
KPA1 111313Z 23005KT 25/18 A3006 RMK A01 T02480178  RH  065%=      5-min Rain = 0
KPA1 111314Z 24005KT 25/18 A3007 RMK A01 T02490178  RH  065%=      5-min Rain = 0
KPA1 111315Z 24005KT 25/18 A3007 RMK A01 T02510178  RH  064%=      5-min Rain = 0
KPA1 111316Z 24005KT 25/18 A3007 RMK A01 T02520177  RH  063%=      5-min Rain = 0
KPA1 111317Z 24005KT 25/18 A3007 RMK A01 T02540178  RH  063%=      5-min Rain = 0
KPA1 111318Z 24005KT 26/18 A3007 RMK A01 T02550175  RH  061%=      5-min Rain = 0
KPA1 111319Z 24006KT 26/18 A3007 RMK A01 T02560175  RH  061%=      5-min Rain = 0
KPA1 111320Z 24006KT 26/17 A3007 RMK A01 T02570174  RH  060%=      5-min Rain = 0
KPA1 111321Z 24006KT 26/17 A3007 RMK A01 T02580174  RH  060%=      5-min Rain = 0
KPA1 111322Z 23005KT 26/17 A3007 RMK A01 T02590174  RH  059%=      5-min Rain = 0
KPA1 111323Z 23006KT 26/18 A3007 RMK A01 T02600175  RH  059%=      5-min Rain = 0
KPA1 111324Z 23007KT 26/17 A3007 RMK A01 T02610174  RH  059%=      5-min Rain = 0
KPA1 111325Z 23007KT 26/17 A3007 RMK A01 T02620173  RH  058%=      5-min Rain = 0
KPA1 111326Z 23007KT 26/17 A3007 RMK A01 T02630174  RH  058%=      5-min Rain = 0
KPA1 111327Z 23008KT 26/17 A3007 RMK A01 T02630174  RH  058%=      5-min Rain = 0
KPA1 111328Z 23009KT 26/17 A3007 RMK A01 T02640173  RH  057%=      5-min Rain = 0
KPA1 111329Z 22008KT 26/17 A3007 RMK A01 T02640172  RH  057%=      5-min Rain = 0
KPA1 111330Z 22008KT 27/17 A3007 RMK A01 T02650173  RH  057%=      5-min Rain = 0
KPA1 111331Z 23008KT 27/17 A3007 RMK A01 T02650173  RH  057%=      5-min Rain = 0
KPA1 111332Z 22008KT 27/17 A3007 RMK A01 T02660174  RH  057%=      5-min Rain = 0
KPA1 111333Z 22008KT 27/17 A3007 RMK A01 T02670172  RH  056%=      5-min Rain = 0
KPA1 111334Z 23007KT 27/17 A3007 RMK A01 T02670174  RH  057%=      5-min Rain = 0
KPA1 111335Z 23008KT 27/17 A3007 RMK A01 T02670174  RH  057%=      5-min Rain = 0
KPA1 111336Z 23008KT 27/17 A3007 RMK A01 T02680174  RH  056%=      5-min Rain = 0
KPA1 111337Z 23007KT 27/17 A3008 RMK A01 T02690173  RH  056%=      5-min Rain = 0
KPA1 111338Z 23008KT 27/17 A3008 RMK A01 T02700174  RH  056%=      5-min Rain = 0
KPA1 111339Z 23010KT 27/17 A3008 RMK A01 T02700172  RH  055%=      5-min Rain = 0
KPA1 111340Z 23009KT 27/17 A3008 RMK A01 T02690172  RH  055%=      5-min Rain = 0
KPA1 111341Z 23008KT 27/17 A3008 RMK A01 T02700173  RH  055%=      5-min Rain = 0
KPA1 111342Z 22007KT 27/18 A3008 RMK A01 T02700175  RH  056%=      5-min Rain = 0
KPA1 111343Z 23010KT 27/17 A3008 RMK A01 T02710173  RH  055%=      5-min Rain = 0
KPA1 111344Z 23010KT 27/17 A3008 RMK A01 T02710172  RH  055%=      5-min Rain = 0
KPA1 111345Z 23010KT 27/17 A3008 RMK A01 T02710172  RH  055%=      5-min Rain = 0
KPA1 111346Z 23009KT 27/17 A3008 RMK A01 T02700173  RH  055%=      5-min Rain = 0
KPA1 111347Z 22009KT 27/17 A3008 RMK A01 T02700174  RH  055%=      5-min Rain = 0
KPA1 111348Z 23009KT 27/17 A3008 RMK A01 T02700174  RH  055%=      5-min Rain = 0
KPA1 111349Z 23008KT 27/17 A3008 RMK A01 T02710174  RH  056%=      5-min Rain = 0
KPA1 111350Z 23009KT 27/18 A3008 RMK A01 T02710175  RH  055%=      5-min Rain = 0
KPA1 111351Z 23008KT 27/18 A3008 RMK A01 T02710175  RH  056%=      5-min Rain = 0
KPA1 111352Z 23008KT 27/18 A3008 RMK A01 T02710175  RH  056%=      5-min Rain = 0
KPA1 111353Z 23010KT 27/18 A3008 RMK A01 T02710175  RH  056%=      5-min Rain = 0
KPA1 111354Z 23010KT 27/17 A3008 RMK A01 T02710172  RH  055%=      5-min Rain = 0
KPA1 111355Z 23010KT 27/18 A3008 RMK A01 T02710175  RH  055%=      5-min Rain = 0
KPA1 111356Z 23010KT 27/17 A3008 RMK A01 T02720174  RH  055%=      5-min Rain = 0
KPA1 111357Z 23009KT 27/17 A3008 RMK A01 T02710174  RH  055%=      5-min Rain = 0
KPA1 111358Z 23009KT 27/18 A3008 RMK A01 T02710175  RH  056%=      5-min Rain = 0
KPA1 111359Z 23010KT 27/17 A3008 RMK A01 T02720173  RH  055%=      5-min Rain = 0
KPA1 111400Z 23009KT 27/17 A3008 RMK A01 T02720173  RH  055%=      5-min Rain = 0
KPA1 111401Z 23008KT 27/18 A3008 RMK A01 T02720175  RH  055%=      5-min Rain = 0
KPA1 111402Z 22010KT 27/18 A3008 RMK A01 T02730176  RH  056%=      5-min Rain = 0
KPA1 111403Z 23010KT 27/18 A3008 RMK A01 T02740176  RH  055%=      5-min Rain = 0
KPA1 111404Z 22009KT 27/17 A3008 RMK A01 T02740174  RH  054%=      5-min Rain = 0
KPA1 111405Z 22010KT 27/18 A3008 RMK A01 T02740176  RH  055%=      5-min Rain = 0
KPA1 111406Z 23012KT 27/17 A3008 RMK A01 T02740174  RH  054%=      5-min Rain = 0
KPA1 111407Z 22009KT 27/18 A3008 RMK A01 T02740175  RH  055%=      5-min Rain = 0
KPA1 111408Z 23008KT 27/18 A3008 RMK A01 T02740177  RH  055%=      5-min Rain = 0
KPA1 111409Z 22010KT 27/18 A3008 RMK A01 T02740177  RH  055%=      5-min Rain = 0
KPA1 111410Z 22009KT 27/18 A3008 RMK A01 T02740176  RH  055%=      5-min Rain = 0
KPA1 111411Z 23009KT 27/18 A3008 RMK A01 T02740177  RH  055%=      5-min Rain = 0
KPA1 111412Z 23008KT 27/18 A3008 RMK A01 T02740177  RH  055%=      5-min Rain = 0
KPA1 111413Z 23009KT 27/18 A3008 RMK A01 T02740177  RH  055%=      5-min Rain = 0
KPA1 111414Z 23008KT 28/18 A3008 RMK A01 T02750177  RH  055%=      5-min Rain = 0
KPA1 111415Z 24008KT 28/18 A3008 RMK A01 T02750176  RH  055%=      5-min Rain = 0
KPA1 111416Z 23010KT 28/17 A3008 RMK A01 T02770174  RH  053%=      5-min Rain = 0
KPA1 111417Z 24010KT 28/17 A3008 RMK A01 T02780172  RH  053%=      5-min Rain = 0
KPA1 111418Z 24009KT 28/17 A3008 RMK A01 T02780174  RH  053%=      5-min Rain = 0
KPA1 111419Z 23011KT 28/17 A3008 RMK A01 T02780172  RH  052%=      5-min Rain = 0
KPA1 111420Z 23011KT 28/17 A3008 RMK A01 T02790172  RH  052%=      5-min Rain = 0
KPA1 111421Z 23011KT 28/17 A3008 RMK A01 T02790171  RH  052%=      5-min Rain = 0
KPA1 111422Z 22009KT 28/17 A3008 RMK A01 T02790172  RH  052%=      5-min Rain = 0
KPA1 111423Z 22010KT 28/17 A3008 RMK A01 T02790174  RH  053%=      5-min Rain = 0
KPA1 111424Z 22010KT 28/17 A3008 RMK A01 T02790174  RH  053%=      5-min Rain = 0
KPA1 111425Z 22009KT 28/17 A3008 RMK A01 T02790172  RH  052%=      5-min Rain = 0
KPA1 111426Z 22010KT 28/18 A3008 RMK A01 T02790175  RH  053%=      5-min Rain = 0
KPA1 111427Z 22011KT 28/17 A3008 RMK A01 T02790172  RH  052%=      5-min Rain = 0
KPA1 111428Z 22010KT 28/17 A3008 RMK A01 T02800173  RH  052%=      5-min Rain = 0
KPA1 111429Z 22009KT 28/18 A3008 RMK A01 T02800175  RH  053%=      5-min Rain = 0
KPA1 111430Z 22011KT 28/17 A3008 RMK A01 T02800174  RH  053%=      5-min Rain = 0
KPA1 111431Z 23009KT 28/17 A3008 RMK A01 T02800174  RH  052%=      5-min Rain = 0
KPA1 111432Z 22008KT 28/18 A3008 RMK A01 T02820178  RH  053%=      5-min Rain = 0
KPA1 111433Z 22009G14KT 28/17 A3008 RMK A01 T02840174  RH  051%=      5-min Rain = 0
KPA1 111434Z 23010KT 28/17 A3008 RMK A01 T02840171  RH  051%=      5-min Rain = 0
KPA1 111435Z 24011KT 29/17 A3009 RMK A01 T02850171  RH  050%=      5-min Rain = 0
KPA1 111436Z 24010KT 29/17 A3009 RMK A01 T02860169  RH  049%=      5-min Rain = 0
KPA1 111437Z 25010KT 29/17 A3009 RMK A01 T02860168  RH  049%=      5-min Rain = 0
KPA1 111438Z 25011KT 29/17 A3009 RMK A01 T02860166  RH  048%=      5-min Rain = 0
KPA1 111439Z 25011KT 29/17 A3009 RMK A01 T02860167  RH  049%=      5-min Rain = 0
KPA1 111440Z 23010KT 29/17 A3009 RMK A01 T02860167  RH  048%=      5-min Rain = 0
KPA1 111441Z 23010KT 29/17 A3009 RMK A01 T02890170  RH  048%=      5-min Rain = 0
KPA1 111442Z 23011KT 29/17 A3009 RMK A01 T02890167  RH  048%=      5-min Rain = 0
KPA1 111443Z 23010KT 29/17 A3009 RMK A01 T02890167  RH  048%=      5-min Rain = 0
KPA1 111444Z 22011KT 29/17 A3009 RMK A01 T02900167  RH  048%=      5-min Rain = 0
KPA1 111445Z 23011KT 29/17 A3009 RMK A01 T02910170  RH  048%=      5-min Rain = 0
KPA1 111446Z 23012KT 29/17 A3008 RMK A01 T02920168  RH  047%=      5-min Rain = 0
KPA1 111447Z 22013KT 29/17 A3008 RMK A01 T02920169  RH  047%=      5-min Rain = 0
KPA1 111448Z 22011KT 29/17 A3008 RMK A01 T02920170  RH  048%=      5-min Rain = 0
KPA1 111449Z 21011KT 29/17 A3008 RMK A01 T02910172  RH  048%=      5-min Rain = 0
KPA1 111450Z 21012KT 29/17 A3008 RMK A01 T02910171  RH  048%=      5-min Rain = 0
KPA1 111451Z 21012KT 29/17 A3008 RMK A01 T02910170  RH  048%=      5-min Rain = 0
KPA1 111452Z 22010KT 29/17 A3008 RMK A01 T02910172  RH  049%=      5-min Rain = 0
KPA1 111453Z 22011KT 29/17 A3008 RMK A01 T02900171  RH  049%=      5-min Rain = 0
KPA1 111454Z 22011KT 29/17 A3008 RMK A01 T02880170  RH  049%=      5-min Rain = 0
KPA1 111455Z 22011KT 29/17 A3008 RMK A01 T02870171  RH  049%=      5-min Rain = 0
KPA1 111456Z 23011KT 29/17 A3008 RMK A01 T02890170  RH  049%=      5-min Rain = 0
KPA1 111457Z 23010KT 29/17 A3008 RMK A01 T02890173  RH  049%=      5-min Rain = 0
KPA1 111458Z 23009KT 29/17 A3008 RMK A01 T02900174  RH  049%=      5-min Rain = 0
KPA1 111459Z 23010KT 29/17 A3008 RMK A01 T02920173  RH  049%=      5-min Rain = 0
KPA1 111500Z 23010KT 29/17 A3008 RMK A01 T02920174  RH  049%=      5-min Rain = 0
KPA1 111501Z 24011KT 29/17 A3008 RMK A01 T02930170  RH  048%=      5-min Rain = 0
KPA1 111502Z 24010KT 29/17 A3008 RMK A01 T02940169  RH  047%=      5-min Rain = 0
KPA1 111503Z 23011KT 30/17 A3008 RMK A01 T02950168  RH  046%=      5-min Rain = 0
KPA1 111504Z 24010KT 29/17 A3008 RMK A01 T02940167  RH  046%=      5-min Rain = 0
KPA1 111505Z 22011KT 30/17 A3008 RMK A01 T02950170  RH  047%=      5-min Rain = 0
KPA1 111506Z 22011KT 30/17 A3008 RMK A01 T02950169  RH  047%=      5-min Rain = 0
KPA1 111507Z 22011KT 29/17 A3008 RMK A01 T02940170  RH  047%=      5-min Rain = 0
KPA1 111508Z 21012KT 29/17 A3008 RMK A01 T02940171  RH  047%=      5-min Rain = 0
KPA1 111509Z 22011KT 30/17 A3008 RMK A01 T02950173  RH  048%=      5-min Rain = 0
KPA1 111510Z 22011KT 30/17 A3007 RMK A01 T02950174  RH  048%=      5-min Rain = 0
KPA1 111511Z 22012KT 30/17 A3007 RMK A01 T02960172  RH  047%=      5-min Rain = 0
KPA1 111512Z 21013KT 30/17 A3007 RMK A01 T02960173  RH  048%=      5-min Rain = 0
KPA1 111513Z 22014KT 30/17 A3007 RMK A01 T02960171  RH  047%=      5-min Rain = 0
KPA1 111514Z 22012KT 30/17 A3007 RMK A01 T02960170  RH  047%=      5-min Rain = 0
KPA1 111515Z 22012KT 30/17 A3007 RMK A01 T02970171  RH  047%=      5-min Rain = 0
KPA1 111516Z 22013KT 30/17 A3007 RMK A01 T02970173  RH  047%=      5-min Rain = 0
KPA1 111517Z 22012KT 30/17 A3007 RMK A01 T02960170  RH  047%=      5-min Rain = 0
KPA1 111518Z 23010KT 30/17 A3007 RMK A01 T02960173  RH  048%=      5-min Rain = 0
KPA1 111519Z 24012KT 30/17 A3007 RMK A01 T02960174  RH  048%=      5-min Rain = 0
KPA1 111520Z 23012KT 30/17 A3007 RMK A01 T02980169  RH  046%=      5-min Rain = 0
KPA1 111521Z 23013KT 30/17 A3007 RMK A01 T02980170  RH  046%=      5-min Rain = 0
KPA1 111522Z 22011KT 30/17 A3007 RMK A01 T03000174  RH  047%=      5-min Rain = 0
KPA1 111523Z 22011KT 30/18 A3007 RMK A01 T03010176  RH  047%=      5-min Rain = 0
KPA1 111524Z 22011KT 30/17 A3007 RMK A01 T03000173  RH  046%=      5-min Rain = 0
KPA1 111525Z 22012KT 30/18 A3007 RMK A01 T02980175  RH  047%=      5-min Rain = 0
KPA1 111526Z 21013KT 30/18 A3007 RMK A01 T03000175  RH  047%=      5-min Rain = 0
KPA1 111527Z 21013KT 30/17 A3007 RMK A01 T03020171  RH  045%=      5-min Rain = 0
KPA1 111528Z 21015KT 30/17 A3007 RMK A01 T03040169  RH  044%=      5-min Rain = 0
KPA1 111529Z 21015KT 31/17 A3007 RMK A01 T03050170  RH  044%=      5-min Rain = 0
KPA1 111530Z 21013KT 31/17 A3007 RMK A01 T03050170  RH  044%=      5-min Rain = 0
KPA1 111531Z 21013KT 31/17 A3007 RMK A01 T03060169  RH  044%=      5-min Rain = 0
KPA1 111532Z 22014KT 31/17 A3007 RMK A01 T03060171  RH  044%=      5-min Rain = 0
KPA1 111533Z 22014KT 31/17 A3007 RMK A01 T03050171  RH  045%=      5-min Rain = 0
KPA1 111534Z 23013KT 31/17 A3007 RMK A01 T03060170  RH  044%=      5-min Rain = 0
KPA1 111535Z 23013KT 31/17 A3007 RMK A01 T03080173  RH  044%=      5-min Rain = 0
KPA1 111536Z 23014KT 31/17 A3007 RMK A01 T03070168  RH  043%=      5-min Rain = 0
KPA1 111537Z 23013KT 31/17 A3007 RMK A01 T03070168  RH  043%=      5-min Rain = 0
KPA1 111538Z 22011KT 31/17 A3007 RMK A01 T03080173  RH  044%=      5-min Rain = 0
KPA1 111539Z 22012KT 31/17 A3007 RMK A01 T03100171  RH  043%=      5-min Rain = 0
KPA1 111540Z 22011KT 31/17 A3007 RMK A01 T03100169  RH  043%=      5-min Rain = 0
KPA1 111541Z 20012KT 31/17 A3007 RMK A01 T03100170  RH  043%=      5-min Rain = 0
KPA1 111542Z 21011KT 31/17 A3007 RMK A01 T03110172  RH  043%=      5-min Rain = 0
KPA1 111543Z 21013KT 31/18 A3007 RMK A01 T03140175  RH  043%=      5-min Rain = 0
KPA1 111544Z 21014KT 31/17 A3007 RMK A01 T03140170  RH  042%=      5-min Rain = 0
KPA1 111545Z 22013KT 31/17 A3007 RMK A01 T03130169  RH  042%=      5-min Rain = 0
KPA1 111546Z 21011KT 31/17 A3007 RMK A01 T03130172  RH  043%=      5-min Rain = 0
KPA1 111547Z 20013KT 31/18 A3007 RMK A01 T03140175  RH  043%=      5-min Rain = 0
KPA1 111548Z 21012KT 32/17 A3007 RMK A01 T03150170  RH  042%=      5-min Rain = 0
KPA1 111549Z 21012KT 32/17 A3007 RMK A01 T03150172  RH  042%=      5-min Rain = 0
KPA1 111550Z 21014KT 32/17 A3007 RMK A01 T03150170  RH  042%=      5-min Rain = 0
KPA1 111551Z 22014KT 31/17 A3007 RMK A01 T03140170  RH  042%=      5-min Rain = 0
KPA1 111552Z 21011KT 31/17 A3007 RMK A01 T03130173  RH  043%=      5-min Rain = 0
KPA1 111553Z 21014KT 31/17 A3007 RMK A01 T03140173  RH  043%=      5-min Rain = 0
KPA1 111554Z 21016KT 32/17 A3007 RMK A01 T03160173  RH  043%=      5-min Rain = 0
KPA1 111555Z 21014KT 32/17 A3007 RMK A01 T03160170  RH  041%=      5-min Rain = 0
KPA1 111556Z 21015KT 32/17 A3007 RMK A01 T03170170  RH  041%=      5-min Rain = 0
KPA1 111557Z 20014KT 32/17 A3006 RMK A01 T03160169  RH  041%=      5-min Rain = 0
KPA1 111558Z 20014KT 32/17 A3006 RMK A01 T03180174  RH  042%=      5-min Rain = 0
KPA1 111559Z 20015KT 32/17 A3006 RMK A01 T03210172  RH  041%=      5-min Rain = 0
KPA1 111600Z 22014KT 32/17 A3006 RMK A01 T03210171  RH  041%=      5-min Rain = 0
KPA1 111601Z 21012KT 32/17 A3006 RMK A01 T03200172  RH  041%=      5-min Rain = 0
KPA1 111602Z 21015KT 32/17 A3006 RMK A01 T03210173  RH  041%=      5-min Rain = 0
KPA1 111603Z 22015KT 32/17 A3006 RMK A01 T03210169  RH  040%=      5-min Rain = 0
KPA1 111604Z 21014KT 32/17 A3006 RMK A01 T03210169  RH  040%=      5-min Rain = 0
KPA1 111605Z 21015KT 32/17 A3007 RMK A01 T03200172  RH  041%=      5-min Rain = 0
KPA1 111606Z 22014KT 32/17 A3007 RMK A01 T03200170  RH  041%=      5-min Rain = 0
KPA1 111607Z 22012KT 32/17 A3007 RMK A01 T03200171  RH  041%=      5-min Rain = 0
KPA1 111608Z 22015KT 32/17 A3007 RMK A01 T03220173  RH  041%=      5-min Rain = 0
KPA1 111609Z 22013KT 32/17 A3007 RMK A01 T03230174  RH  041%=      5-min Rain = 0
KPA1 111610Z 22014KT 32/17 A3007 RMK A01 T03230171  RH  040%=      5-min Rain = 0
KPA1 111611Z 22016KT 32/17 A3007 RMK A01 T03230171  RH  040%=      5-min Rain = 0
KPA1 111612Z 22013KT 32/17 A3007 RMK A01 T03230171  RH  040%=      5-min Rain = 0
KPA1 111613Z 21012KT 32/17 A3007 RMK A01 T03240168  RH  039%=      5-min Rain = 0
KPA1 111614Z 20014KT 33/17 A3007 RMK A01 T03260172  RH  040%=      5-min Rain = 0
KPA1 111615Z 21014G19KT 33/17 A3007 RMK A01 T03270169  RH  039%=      5-min Rain = 0
KPA1 111616Z 20011KT 33/17 A3007 RMK A01 T03290171  RH  039%=      5-min Rain = 0
KPA1 111617Z 20014KT 33/17 A3007 RMK A01 T03300170  RH  038%=      5-min Rain = 0
KPA1 111618Z 21012KT 33/17 A3007 RMK A01 T03310172  RH  039%=      5-min Rain = 0
KPA1 111619Z 22011KT 33/17 A3007 RMK A01 T03300174  RH  040%=      5-min Rain = 0
KPA1 111620Z 21013G18KT 33/18 A3007 RMK A01 T03310175  RH  040%=      5-min Rain = 0
KPA1 111621Z 22014KT 33/17 A3007 RMK A01 T03310167  RH  038%=      5-min Rain = 0
KPA1 111622Z 21010KT 33/17 A3007 RMK A01 T03300172  RH  039%=      5-min Rain = 0
KPA1 111623Z 21010KT 33/18 A3007 RMK A01 T03300177  RH  040%=      5-min Rain = 0
KPA1 111624Z 21012G17KT 33/18 A3007 RMK A01 T03290177  RH  040%=      5-min Rain = 0
KPA1 111625Z 21012G17KT 33/17 A3007 RMK A01 T03290171  RH  039%=      5-min Rain = 0
KPA1 111626Z 21012KT 33/18 A3007 RMK A01 T03320176  RH  040%=      5-min Rain = 0
KPA1 111627Z 20013KT 34/17 A3007 RMK A01 T03350171  RH  038%=      5-min Rain = 0
KPA1 111628Z 20012KT 33/17 A3007 RMK A01 T03320169  RH  038%=      5-min Rain = 0
KPA1 111629Z 21015KT 33/17 A3007 RMK A01 T03310169  RH  038%=      5-min Rain = 0
KPA1 111630Z 21012KT 33/17 A3007 RMK A01 T03300167  RH  038%=      5-min Rain = 0
KPA1 111631Z 22010KT 33/17 A3007 RMK A01 T03270167  RH  038%=      5-min Rain = 0
KPA1 111632Z 21009KT 33/17 A3007 RMK A01 T03250166  RH  038%=      5-min Rain = 0
KPA1 111633Z 20010KT 33/17 A3007 RMK A01 T03250167  RH  039%=      5-min Rain = 0
KPA1 111634Z 20010KT 32/17 A3007 RMK A01 T03240171  RH  040%=      5-min Rain = 0
KPA1 111635Z 20012KT 33/17 A3007 RMK A01 T03250174  RH  041%=      5-min Rain = 0
KPA1 111636Z 20012KT 33/17 A3007 RMK A01 T03260172  RH  040%=      5-min Rain = 0
KPA1 111637Z 19010KT 33/17 A3007 RMK A01 T03270168  RH  039%=      5-min Rain = 0
KPA1 111638Z 20012KT 33/17 A3007 RMK A01 T03290168  RH  038%=      5-min Rain = 0
KPA1 111639Z 21011KT 33/17 A3007 RMK A01 T03300169  RH  038%=      5-min Rain = 0
KPA1 111640Z 21011KT 33/17 A3007 RMK A01 T03330173  RH  039%=      5-min Rain = 0
KPA1 111641Z 20010KT 34/17 A3007 RMK A01 T03360172  RH  038%=      5-min Rain = 0
KPA1 111642Z 19013KT 34/17 A3007 RMK A01 T03360172  RH  038%=      5-min Rain = 0
KPA1 111643Z 19012KT 33/17 A3007 RMK A01 T03340165  RH  036%=      5-min Rain = 0
KPA1 111644Z 20011KT 33/16 A3007 RMK A01 T03310164  RH  037%=      5-min Rain = 0
KPA1 111645Z 21010KT 33/17 A3007 RMK A01 T03300168  RH  038%=      5-min Rain = 0
KPA1 111646Z 21011KT 33/17 A3007 RMK A01 T03280173  RH  040%=      5-min Rain = 0
KPA1 111647Z 20010KT 33/17 A3007 RMK A01 T03260171  RH  040%=      5-min Rain = 0
KPA1 111648Z 20012KT 33/17 A3007 RMK A01 T03250173  RH  040%=      5-min Rain = 0
KPA1 111649Z 20012KT 33/17 A3007 RMK A01 T03250171  RH  040%=      5-min Rain = 0
KPA1 111650Z 21011KT 32/17 A3007 RMK A01 T03240169  RH  040%=      5-min Rain = 0
KPA1 111651Z 21009KT 32/17 A3007 RMK A01 T03230166  RH  039%=      5-min Rain = 0
KPA1 111652Z 20008KT 33/17 A3007 RMK A01 T03250168  RH  039%=      5-min Rain = 0
KPA1 111653Z 19008KT 33/17 A3007 RMK A01 T03260174  RH  040%=      5-min Rain = 0
KPA1 111654Z 19010KT 33/18 A3007 RMK A01 T03270175  RH  040%=      5-min Rain = 0
KPA1 111655Z 20012KT 33/17 A3007 RMK A01 T03280171  RH  039%=      5-min Rain = 0
KPA1 111656Z 19012KT 33/17 A3007 RMK A01 T03280168  RH  038%=      5-min Rain = 0
KPA1 111657Z 19012KT 33/17 A3007 RMK A01 T03280166  RH  038%=      5-min Rain = 0
KPA1 111658Z 18012KT 33/17 A3007 RMK A01 T03270167  RH  039%=      5-min Rain = 0
KPA1 111659Z 19014KT 33/17 A3007 RMK A01 T03260167  RH  039%=      5-min Rain = 0
KPA1 111700Z 19012KT 33/17 A3007 RMK A01 T03260168  RH  039%=      5-min Rain = 0
KPA1 111701Z 19011KT 33/17 A3007 RMK A01 T03250169  RH  039%=      5-min Rain = 0
KPA1 111702Z 19014KT 33/17 A3007 RMK A01 T03250168  RH  039%=      5-min Rain = 0
KPA1 111703Z 19014KT 32/17 A3007 RMK A01 T03240167  RH  039%=      5-min Rain = 0
KPA1 111704Z 19011KT 32/17 A3007 RMK A01 T03230167  RH  039%=      5-min Rain = 0
KPA1 111705Z 19011KT 32/17 A3007 RMK A01 T03230170  RH  040%=      5-min Rain = 0
KPA1 111706Z 18011KT 32/17 A3007 RMK A01 T03220171  RH  040%=      5-min Rain = 0
KPA1 111707Z 19011KT 32/17 A3007 RMK A01 T03230170  RH  040%=      5-min Rain = 0
KPA1 111708Z 19011KT 32/17 A3007 RMK A01 T03230171  RH  040%=      5-min Rain = 0
KPA1 111709Z 19009KT 32/17 A3007 RMK A01 T03210173  RH  041%=      5-min Rain = 0
KPA1 111710Z 19010KT 32/18 A3007 RMK A01 T03200176  RH  042%=      5-min Rain = 0
KPA1 111711Z 19012KT 32/17 A3007 RMK A01 T03190171  RH  041%=      5-min Rain = 0
KPA1 111712Z 19014KT 32/17 A3007 RMK A01 T03200169  RH  040%=      5-min Rain = 0
KPA1 111713Z 20014KT 32/17 A3007 RMK A01 T03200167  RH  040%=      5-min Rain = 0
KPA1 111714Z 20015KT 32/17 A3007 RMK A01 T03200165  RH  040%=      5-min Rain = 0
KPA1 111715Z 20010KT 32/17 A3007 RMK A01 T03200167  RH  040%=      5-min Rain = 0
KPA1 111716Z 19012KT 32/17 A3007 RMK A01 T03200168  RH  040%=      5-min Rain = 0
KPA1 111717Z 19012KT 32/17 A3007 RMK A01 T03200165  RH  039%=      5-min Rain = 0
KPA1 111718Z 19012KT 32/17 A3007 RMK A01 T03200165  RH  039%=      5-min Rain = 0
KPA1 111719Z 19012KT 32/17 A3007 RMK A01 T03210169  RH  040%=      5-min Rain = 0
KPA1 111720Z 19012KT 32/17 A3007 RMK A01 T03200171  RH  041%=      5-min Rain = 0
KPA1 111721Z 18011KT 32/17 A3007 RMK A01 T03200172  RH  041%=      5-min Rain = 0
KPA1 111722Z 19013KT 32/17 A3007 RMK A01 T03210169  RH  040%=      5-min Rain = 0
KPA1 111723Z 18012KT 32/17 A3007 RMK A01 T03220170  RH  040%=      5-min Rain = 0
KPA1 111724Z 18011KT 32/17 A3007 RMK A01 T03230171  RH  040%=      5-min Rain = 0
KPA1 111725Z 18014KT 32/17 A3007 RMK A01 T03240169  RH  040%=      5-min Rain = 0
KPA1 111726Z 18013KT 32/17 A3007 RMK A01 T03240169  RH  040%=      5-min Rain = 0
KPA1 111727Z 18012KT 32/17 A3007 RMK A01 T03230169  RH  040%=      5-min Rain = 0
KPA1 111728Z 19011KT 32/17 A3007 RMK A01 T03230171  RH  040%=      5-min Rain = 0
KPA1 111729Z 18011KT 32/17 A3007 RMK A01 T03240172  RH  040%=      5-min Rain = 0
KPA1 111730Z 18012KT 33/17 A3007 RMK A01 T03250172  RH  040%=      5-min Rain = 0
KPA1 111731Z 18012KT 33/17 A3006 RMK A01 T03250170  RH  040%=      5-min Rain = 0
KPA1 111732Z 18011KT 33/17 A3006 RMK A01 T03250171  RH  040%=      5-min Rain = 0
KPA1 111733Z 18012KT 33/17 A3006 RMK A01 T03260171  RH  040%=      5-min Rain = 0
KPA1 111734Z 19010KT 33/17 A3006 RMK A01 T03270172  RH  040%=      5-min Rain = 0
KPA1 111735Z 18010KT 33/18 A3006 RMK A01 T03270175  RH  040%=      5-min Rain = 0
KPA1 111736Z 19009KT 33/18 A3006 RMK A01 T03270175  RH  040%=      5-min Rain = 0
KPA1 111737Z 18012KT 33/17 A3006 RMK A01 T03270173  RH  040%=      5-min Rain = 0
KPA1 111738Z 18012G17KT 33/17 A3006 RMK A01 T03270170  RH  039%=      5-min Rain = 0
KPA1 111739Z 18013KT 33/17 A3006 RMK A01 T03270167  RH  038%=      5-min Rain = 0
KPA1 111740Z 19013KT 33/17 A3006 RMK A01 T03270167  RH  038%=      5-min Rain = 0
KPA1 111741Z 19013KT 33/17 A3006 RMK A01 T03280168  RH  039%=      5-min Rain = 0
KPA1 111742Z 19014KT 33/17 A3006 RMK A01 T03280166  RH  038%=      5-min Rain = 0
KPA1 111743Z 19013KT 33/17 A3006 RMK A01 T03280166  RH  038%=      5-min Rain = 0
KPA1 111744Z 18013KT 33/17 A3006 RMK A01 T03300167  RH  038%=      5-min Rain = 0
KPA1 111745Z 18012KT 33/17 A3006 RMK A01 T03320166  RH  037%=      5-min Rain = 0
KPA1 111746Z 18013KT 33/17 A3006 RMK A01 T03330172  RH  038%=      5-min Rain = 0
KPA1 111747Z 18015KT 34/17 A3006 RMK A01 T03370173  RH  038%=      5-min Rain = 0
KPA1 111748Z 18013KT 34/17 A3006 RMK A01 T03360174  RH  038%=      5-min Rain = 0
KPA1 111749Z 18013KT 34/17 A3006 RMK A01 T03360174  RH  038%=      5-min Rain = 0
KPA1 111750Z 18014KT 34/17 A3006 RMK A01 T03400171  RH  037%=      5-min Rain = 0
KPA1 111751Z 18013KT 34/17 A3006 RMK A01 T03410172  RH  037%=      5-min Rain = 0
KPA1 111752Z 17016KT 34/17 A3006 RMK A01 T03410167  RH  035%=      5-min Rain = 0
KPA1 111753Z 17012KT 34/16 A3006 RMK A01 T03400164  RH  035%=      5-min Rain = 0
KPA1 111754Z 18013KT 34/17 A3006 RMK A01 T03400166  RH  035%=      5-min Rain = 0
KPA1 111755Z 19013KT 34/17 A3006 RMK A01 T03410168  RH  036%=      5-min Rain = 0
KPA1 111756Z 18013KT 34/17 A3006 RMK A01 T03390170  RH  037%=      5-min Rain = 0
KPA1 111757Z 18011KT 34/17 A3006 RMK A01 T03360168  RH  037%=      5-min Rain = 0
KPA1 111758Z 19013KT 33/17 A3006 RMK A01 T03340169  RH  037%=      5-min Rain = 0
KPA1 111759Z 18012KT 33/17 A3006 RMK A01 T03320170  RH  038%=      5-min Rain = 0
KPA1 111800Z 17016KT 34/17 A3006 RMK A01 T03360171  RH  037%=      5-min Rain = 0
KPA1 111801Z 18014KT 34/17 A3006 RMK A01 T03390172  RH  037%=      5-min Rain = 0
KPA1 111802Z 19014KT 34/17 A3006 RMK A01 T03410173  RH  037%=      5-min Rain = 0
KPA1 111803Z 19014KT 34/17 A3006 RMK A01 T03440174  RH  036%=      5-min Rain = 0
KPA1 111804Z 19012KT 35/17 A3006 RMK A01 T03450171  RH  036%=      5-min Rain = 0
KPA1 111805Z 18012KT 34/17 A3005 RMK A01 T03430171  RH  036%=      5-min Rain = 0
KPA1 111806Z 18014KT 34/17 A3005 RMK A01 T03440173  RH  036%=      5-min Rain = 0
KPA1 111807Z 19013KT 35/17 A3005 RMK A01 T03460171  RH  035%=      5-min Rain = 0
KPA1 111808Z 18011KT 35/17 A3005 RMK A01 T03460170  RH  035%=      5-min Rain = 0
KPA1 111809Z 18014KT 35/17 A3005 RMK A01 T03460171  RH  035%=      5-min Rain = 0
KPA1 111810Z 18013KT 35/17 A3005 RMK A01 T03450170  RH  035%=      5-min Rain = 0
KPA1 111811Z 18011KT 34/17 A3005 RMK A01 T03440173  RH  036%=      5-min Rain = 0
KPA1 111812Z 18011KT 34/18 A3005 RMK A01 T03420177  RH  038%=      5-min Rain = 0
KPA1 111813Z 18012KT 34/17 A3005 RMK A01 T03430172  RH  036%=      5-min Rain = 0
KPA1 111814Z 18014KT 34/17 A3005 RMK A01 T03440170  RH  036%=      5-min Rain = 0
KPA1 111815Z 18011KT 34/17 A3005 RMK A01 T03410170  RH  036%=      5-min Rain = 0
KPA1 111816Z 19010KT 34/18 A3005 RMK A01 T03430175  RH  037%=      5-min Rain = 0
KPA1 111817Z 18011KT 35/17 A3005 RMK A01 T03460174  RH  036%=      5-min Rain = 0
KPA1 111818Z 19010KT 35/18 A3005 RMK A01 T03480175  RH  036%=      5-min Rain = 0
KPA1 111819Z 18012KT 35/18 A3005 RMK A01 T03500176  RH  036%=      5-min Rain = 0
KPA1 111820Z 18012KT 35/17 A3005 RMK A01 T03480168  RH  034%=      5-min Rain = 0
KPA1 111821Z 18010KT 35/17 A3005 RMK A01 T03460169  RH  035%=      5-min Rain = 0
KPA1 111822Z 18011KT 35/17 A3005 RMK A01 T03490170  RH  035%=      5-min Rain = 0
KPA1 111823Z 17012KT 35/17 A3005 RMK A01 T03520169  RH  034%=      5-min Rain = 0
KPA1 111824Z 17013KT 35/17 A3005 RMK A01 T03530167  RH  033%=      5-min Rain = 0
KPA1 111825Z 18012KT 35/17 A3005 RMK A01 T03520167  RH  033%=      5-min Rain = 0
KPA1 111826Z 18011KT 35/17 A3005 RMK A01 T03500168  RH  034%=      5-min Rain = 0
KPA1 111827Z 19013KT 35/17 A3005 RMK A01 T03500173  RH  035%=      5-min Rain = 0
KPA1 111828Z 20011KT 35/17 A3005 RMK A01 T03500170  RH  034%=      5-min Rain = 0
KPA1 111829Z 21009KT 35/17 A3005 RMK A01 T03470169  RH  035%=      5-min Rain = 0
KPA1 111830Z 18010KT 34/17 A3005 RMK A01 T03440169  RH  035%=      5-min Rain = 0
KPA1 111831Z 19012KT 34/17 A3005 RMK A01 T03410174  RH  037%=      5-min Rain = 0
KPA1 111832Z 18011KT 34/17 A3005 RMK A01 T03380172  RH  037%=      5-min Rain = 0
KPA1 111833Z 19011KT 34/17 A3005 RMK A01 T03370166  RH  036%=      5-min Rain = 0
KPA1 111834Z 19010KT 34/17 A3005 RMK A01 T03370165  RH  036%=      5-min Rain = 0
KPA1 111835Z 18008KT 34/17 A3004 RMK A01 T03370168  RH  037%=      5-min Rain = 0
KPA1 111836Z 17010KT 34/17 A3004 RMK A01 T03370172  RH  037%=      5-min Rain = 0
KPA1 111837Z 17012KT 34/17 A3004 RMK A01 T03380171  RH  037%=      5-min Rain = 0
KPA1 111838Z 18012KT 34/17 A3004 RMK A01 T03390168  RH  036%=      5-min Rain = 0
KPA1 111839Z 18011KT 34/17 A3004 RMK A01 T03380170  RH  037%=      5-min Rain = 0
KPA1 111840Z 17012KT 34/17 A3004 RMK A01 T03370169  RH  037%=      5-min Rain = 0
KPA1 111841Z 18010KT 34/17 A3004 RMK A01 T03370167  RH  036%=      5-min Rain = 0
KPA1 111842Z 17010KT 34/17 A3004 RMK A01 T03360168  RH  037%=      5-min Rain = 0
KPA1 111843Z 17010G15KT 34/17 A3004 RMK A01 T03370168  RH  036%=      5-min Rain = 0
KPA1 111844Z 18013KT 34/17 A3004 RMK A01 T03380170  RH  037%=      5-min Rain = 0
KPA1 111845Z 18012KT 34/17 A3004 RMK A01 T03380172  RH  037%=      5-min Rain = 0
KPA1 111846Z 18011KT 34/18 A3004 RMK A01 T03380175  RH  038%=      5-min Rain = 0
KPA1 111847Z 18012KT 34/17 A3004 RMK A01 T03380174  RH  038%=      5-min Rain = 0
KPA1 111848Z 18012KT 34/17 A3004 RMK A01 T03390168  RH  036%=      5-min Rain = 0
KPA1 111849Z 18012KT 34/17 A3004 RMK A01 T03420171  RH  036%=      5-min Rain = 0
KPA1 111850Z 17012KT 34/17 A3004 RMK A01 T03430169  RH  036%=      5-min Rain = 0
KPA1 111851Z 17012KT 35/17 A3004 RMK A01 T03450168  RH  035%=      5-min Rain = 0
KPA1 111852Z 18013KT 35/17 A3004 RMK A01 T03490171  RH  035%=      5-min Rain = 0
KPA1 111853Z 18012KT 35/17 A3004 RMK A01 T03520172  RH  034%=      5-min Rain = 0
KPA1 111854Z 17014KT 35/17 A3004 RMK A01 T03540172  RH  034%=      5-min Rain = 0
KPA1 111855Z 16014KT 36/17 A3004 RMK A01 T03550170  RH  033%=      5-min Rain = 0
KPA1 111856Z 17014KT 36/17 A3004 RMK A01 T03590169  RH  033%=      5-min Rain = 0
KPA1 111857Z 17015KT 36/17 A3003 RMK A01 T03590167  RH  032%=      5-min Rain = 0
KPA1 111858Z 18013KT 36/17 A3004 RMK A01 T03590167  RH  032%=      5-min Rain = 0
KPA1 111859Z 18010KT 36/17 A3003 RMK A01 T03610170  RH  032%=      5-min Rain = 0
KPA1 111900Z 18012KT 36/17 A3003 RMK A01 T03630170  RH  032%=      5-min Rain = 0
KPA1 111901Z 18014KT 36/17 A3003 RMK A01 T03640170  RH  032%=      5-min Rain = 0
KPA1 111902Z 18016KT 36/17 A3003 RMK A01 T03630172  RH  033%=      5-min Rain = 0
KPA1 111903Z 17013KT 36/17 A3003 RMK A01 T03600172  RH  033%=      5-min Rain = 0
KPA1 111904Z 17013KT 36/17 A3003 RMK A01 T03600172  RH  033%=      5-min Rain = 0
KPA1 111905Z 17014KT 36/17 A3003 RMK A01 T03600170  RH  033%=      5-min Rain = 0
KPA1 111906Z 18013KT 36/17 A3003 RMK A01 T03610168  RH  032%=      5-min Rain = 0
KPA1 111907Z 18012KT 36/17 A3003 RMK A01 T03620173  RH  033%=      5-min Rain = 0
KPA1 111908Z 18013KT 36/18 A3003 RMK A01 T03640178  RH  034%=      5-min Rain = 0
KPA1 111909Z 18013KT 37/18 A3003 RMK A01 T03680177  RH  033%=      5-min Rain = 0
KPA1 111910Z 18013KT 37/18 A3003 RMK A01 T03670178  RH  033%=      5-min Rain = 0
KPA1 111911Z 18014KT 37/17 A3003 RMK A01 T03670170  RH  031%=      5-min Rain = 0
KPA1 111912Z 19013KT 37/17 A3003 RMK A01 T03650171  RH  032%=      5-min Rain = 0
KPA1 111913Z 19012KT 36/17 A3003 RMK A01 T03620170  RH  032%=      5-min Rain = 0
KPA1 111914Z 18011KT 36/17 A3003 RMK A01 T03580171  RH  033%=      5-min Rain = 0
KPA1 111915Z 18015KT 36/17 A3003 RMK A01 T03550168  RH  033%=      5-min Rain = 0
KPA1 111916Z 20013KT 35/17 A3003 RMK A01 T03520166  RH  033%=      5-min Rain = 0
KPA1 111917Z 19009KT 35/17 A3003 RMK A01 T03500166  RH  033%=      5-min Rain = 0
KPA1 111918Z 18010KT 35/17 A3003 RMK A01 T03530170  RH  034%=      5-min Rain = 0
KPA1 111919Z 17011KT 36/17 A3003 RMK A01 T03550171  RH  034%=      5-min Rain = 0
KPA1 111920Z 18013KT 36/17 A3003 RMK A01 T03610167  RH  032%=      5-min Rain = 0
KPA1 111921Z 19010KT 36/17 A3003 RMK A01 T03620167  RH  031%=      5-min Rain = 0
KPA1 111922Z 22008KT 37/17 A3003 RMK A01 T03660172  RH  032%=      5-min Rain = 0
KPA1 111923Z 20012KT 36/18 A3003 RMK A01 T03630177  RH  033%=      5-min Rain = 0
KPA1 111924Z 20011KT 37/17 A3003 RMK A01 T03660174  RH  032%=      5-min Rain = 0
KPA1 111925Z 21011KT 37/18 A3002 RMK A01 T03670175  RH  032%=      5-min Rain = 0
KPA1 111926Z 20014KT 37/18 A3002 RMK A01 T03670175  RH  032%=      5-min Rain = 0
KPA1 111927Z 20011KT 36/17 A3002 RMK A01 T03590174  RH  034%=      5-min Rain = 0
KPA1 111928Z 19012KT 36/17 A3002 RMK A01 T03570170  RH  033%=      5-min Rain = 0
KPA1 111929Z 20012KT 36/17 A3002 RMK A01 T03590171  RH  033%=      5-min Rain = 0
KPA1 111930Z 21009KT 36/17 A3002 RMK A01 T03620171  RH  032%=      5-min Rain = 0
KPA1 111931Z 21013KT 37/18 A3002 RMK A01 T03660177  RH  033%=      5-min Rain = 0
KPA1 111932Z 21012KT 37/18 A3002 RMK A01 T03670179  RH  033%=      5-min Rain = 0
KPA1 111933Z 20011KT 37/17 A3002 RMK A01 T03660173  RH  032%=      5-min Rain = 0
KPA1 111934Z 20011KT 37/18 A3002 RMK A01 T03670175  RH  032%=      5-min Rain = 0
KPA1 111935Z 20008KT 37/17 A3002 RMK A01 T03680170  RH  031%=      5-min Rain = 0
KPA1 111936Z 21009KT 37/17 A3002 RMK A01 T03670172  RH  032%=      5-min Rain = 0
KPA1 111937Z 19013KT 37/17 A3002 RMK A01 T03670171  RH  032%=      5-min Rain = 0
KPA1 111938Z 19011KT 37/17 A3002 RMK A01 T03660168  RH  031%=      5-min Rain = 0
KPA1 111939Z 19011KT 37/18 A3002 RMK A01 T03680175  RH  032%=      5-min Rain = 0
KPA1 111940Z 20010KT 37/17 A3002 RMK A01 T03690171  RH  031%=      5-min Rain = 0
KPA1 111941Z 21009KT 37/18 A3002 RMK A01 T03690175  RH  032%=      5-min Rain = 0
KPA1 111942Z 21010KT 38/18 A3002 RMK A01 T03750175  RH  031%=      5-min Rain = 0
KPA1 111943Z 21008KT 38/17 A3001 RMK A01 T03750170  RH  030%=      5-min Rain = 0
KPA1 111944Z 20011KT 37/17 A3001 RMK A01 T03730171  RH  031%=      5-min Rain = 0
KPA1 111945Z 19009KT 37/17 A3001 RMK A01 T03730169  RH  030%=      5-min Rain = 0
KPA1 111946Z 22006G11KT 37/16 A3001 RMK A01 T03730164  RH  029%=      5-min Rain = 0
KPA1 111947Z 23009KT 37/17 A3001 RMK A01 T03690166  RH  030%=      5-min Rain = 0
KPA1 111948Z 22011G16KT 37/17 A3001 RMK A01 T03660170  RH  032%=      5-min Rain = 0
KPA1 111949Z 19013KT 37/16 A3001 RMK A01 T03660163  RH  030%=      5-min Rain = 0
KPA1 111950Z 18009KT 37/16 A3001 RMK A01 T03670159  RH  029%=      5-min Rain = 0
KPA1 111951Z 18009KT 37/16 A3001 RMK A01 T03660159  RH  029%=      5-min Rain = 0
KPA1 111952Z 18008KT 37/16 A3001 RMK A01 T03660162  RH  030%=      5-min Rain = 0
KPA1 111953Z 19013KT 37/17 A3001 RMK A01 T03700167  RH  030%=      5-min Rain = 0
KPA1 111954Z 19015KT 37/17 A3001 RMK A01 T03710168  RH  030%=      5-min Rain = 0
KPA1 111955Z 19012KT 37/16 A3001 RMK A01 T03710163  RH  029%=      5-min Rain = 0
KPA1 111956Z 19012KT 37/16 A3001 RMK A01 T03700159  RH  029%=      5-min Rain = 0
KPA1 111957Z 19011KT 37/16 A3001 RMK A01 T03700161  RH  029%=      5-min Rain = 0
KPA1 111958Z 19010KT 37/16 A30 RMK A01 T03730160  RH  028%=      5-min Rain = 0
KPA1 111959Z 19008KT 37/16 A30 RMK A01 T03710158  RH  028%=      5-min Rain = 0
KPA1 112000Z 20007KT 37/16 A30 RMK A01 T03720160  RH  029%=      5-min Rain = 0
KPA1 112001Z 19008KT 37/16 A30 RMK A01 T03720158  RH  028%=      5-min Rain = 0
KPA1 112002Z 21010KT 37/16 A30 RMK A01 T03710164  RH  029%=      5-min Rain = 0
KPA1 112003Z 21013KT 37/16 A30 RMK A01 T03730156  RH  028%=      5-min Rain = 0
KPA1 112004Z 21013KT 37/16 A30 RMK A01 T03710158  RH  028%=      5-min Rain = 0
KPA1 112005Z 20013KT 37/15 A30 RMK A01 T03710154  RH  028%=      5-min Rain = 0
KPA1 112006Z 20013KT 37/15 A30 RMK A01 T03720153  RH  027%=      5-min Rain = 0
KPA1 112007Z 20009KT 37/15 A30 RMK A01 T03720152  RH  027%=      5-min Rain = 0
KPA1 112008Z 20005KT 37/15 A30 RMK A01 T03710151  RH  027%=      5-min Rain = 0
KPA1 112009Z 20007KT 37/15 A30 RMK A01 T03690153  RH  028%=      5-min Rain = 0
KPA1 112010Z 21010KT 37/16 A30 RMK A01 T03670160  RH  029%=      5-min Rain = 0
KPA1 112011Z 20009KT 36/17 A30 RMK A01 T03620165  RH  031%=      5-min Rain = 0
KPA1 112012Z 20008KT 36/17 A30 RMK A01 T03610173  RH  033%=      5-min Rain = 0
KPA1 112013Z 21011KT 37/17 A30 RMK A01 T03650172  RH  032%=      5-min Rain = 0
KPA1 112014Z 21010KT 37/17 A30 RMK A01 T03710169  RH  031%=      5-min Rain = 0
KPA1 112015Z 21008KT 37/17 A30 RMK A01 T03710167  RH  030%=      5-min Rain = 0
KPA1 112016Z 22009KT 37/16 A30 RMK A01 T03730163  RH  029%=      5-min Rain = 0
KPA1 112017Z 22010KT 37/16 A30 RMK A01 T03710160  RH  029%=      5-min Rain = 0
KPA1 112018Z 22008KT 37/16 A30 RMK A01 T03710160  RH  029%=      5-min Rain = 0
KPA1 112019Z 21008KT 37/16 A30 RMK A01 T03710163  RH  029%=      5-min Rain = 0
KPA1 112020Z 20010KT 37/17 A30 RMK A01 T03730170  RH  030%=      5-min Rain = 0
KPA1 112021Z 20014G19KT 37/17 A2999 RMK A01 T03730170  RH  030%=      5-min Rain = 0
KPA1 112022Z 18012KT 37/17 A30 RMK A01 T03730168  RH  030%=      5-min Rain = 0
KPA1 112023Z 18011KT 37/16 A2999 RMK A01 T03730157  RH  028%=      5-min Rain = 0
KPA1 112024Z 19011KT 37/16 A2999 RMK A01 T03730156  RH  028%=      5-min Rain = 0
KPA1 112025Z 19009KT 37/16 A2999 RMK A01 T03740158  RH  028%=      5-min Rain = 0
KPA1 112026Z 20009KT 38/17 A2999 RMK A01 T03750166  RH  029%=      5-min Rain = 0
KPA1 112027Z 18009KT 38/17 A2999 RMK A01 T03750165  RH  029%=      5-min Rain = 0
KPA1 112028Z 19009KT 38/17 A2999 RMK A01 T03760170  RH  030%=      5-min Rain = 0
KPA1 112029Z 19009KT 38/17 A2999 RMK A01 T03760165  RH  029%=      5-min Rain = 0
KPA1 112030Z 19011KT 38/17 A2999 RMK A01 T03760166  RH  029%=      5-min Rain = 0
KPA1 112031Z 17009KT 38/15 A2999 RMK A01 T03760153  RH  027%=      5-min Rain = 0
KPA1 112032Z 19007KT 37/16 A2999 RMK A01 T03740155  RH  027%=      5-min Rain = 0
KPA1 112033Z 19009KT 38/16 A2999 RMK A01 T03780160  RH  028%=      5-min Rain = 0
KPA1 112034Z 21009KT 38/16 A2999 RMK A01 T03800155  RH  026%=      5-min Rain = 0
KPA1 112035Z 21008KT 38/15 A2999 RMK A01 T03750153  RH  027%=      5-min Rain = 0
KPA1 112036Z 19010KT 37/16 A2999 RMK A01 T03740163  RH  029%=      5-min Rain = 0
KPA1 112037Z 19013KT 38/16 A2999 RMK A01 T03780162  RH  028%=      5-min Rain = 0
KPA1 112038Z 17007KT 38/16 A2999 RMK A01 T03790158  RH  027%=      5-min Rain = 0
KPA1 112039Z 14009KT 38/16 A2999 RMK A01 T03770156  RH  027%=      5-min Rain = 0
KPA1 112040Z 17009KT 38/16 A2999 RMK A01 T03770155  RH  027%=      5-min Rain = 0
KPA1 112041Z 18012KT 38/16 A2999 RMK A01 T03800162  RH  028%=      5-min Rain = 0
KPA1 112042Z 19013KT 38/16 A2999 RMK A01 T03800162  RH  028%=      5-min Rain = 0
KPA1 112043Z 18012KT 38/16 A2999 RMK A01 T03800159  RH  027%=      5-min Rain = 0
KPA1 112044Z 18013KT 38/16 A2999 RMK A01 T03820157  RH  027%=      5-min Rain = 0
KPA1 112045Z 19012KT 38/16 A2999 RMK A01 T03820157  RH  027%=      5-min Rain = 0
KPA1 112046Z 19011KT 38/16 A2999 RMK A01 T03810156  RH  027%=      5-min Rain = 0
KPA1 112047Z 20010KT 38/15 A2999 RMK A01 T03800153  RH  026%=      5-min Rain = 0
KPA1 112048Z 18009KT 38/15 A2999 RMK A01 T03780154  RH  027%=      5-min Rain = 0
KPA1 112049Z 18008KT 38/16 A2999 RMK A01 T03790155  RH  027%=      5-min Rain = 0
KPA1 112050Z 17009KT 38/16 A2999 RMK A01 T03810156  RH  027%=      5-min Rain = 0
KPA1 112051Z 15008KT 38/15 A2999 RMK A01 T03830152  RH  026%=      5-min Rain = 0
KPA1 112052Z 17009KT 38/15 A2998 RMK A01 T03820151  RH  026%=      5-min Rain = 0
KPA1 112053Z 16007KT 38/15 A2998 RMK A01 T03790149  RH  026%=      5-min Rain = 0
KPA1 112054Z 14005KT 38/15 A2998 RMK A01 T03760150  RH  026%=      5-min Rain = 0
KPA1 112055Z 15008KT 38/15 A2998 RMK A01 T03760151  RH  026%=      5-min Rain = 0
KPA1 112056Z 15008KT 38/15 A2998 RMK A01 T03760149  RH  026%=      5-min Rain = 0
KPA1 112057Z 14008KT 38/15 A2998 RMK A01 T03750150  RH  026%=      5-min Rain = 0
KPA1 112058Z 15008KT 38/15 A2998 RMK A01 T03760151  RH  026%=      5-min Rain = 0
KPA1 112059Z 15013KT 38/16 A2998 RMK A01 T03810155  RH  026%=      5-min Rain = 0
KPA1 112100Z 14012KT 38/15 A2998 RMK A01 T03830151  RH  026%=      5-min Rain = 0
KPA1 112101Z 14014KT 38/15 A2998 RMK A01 T03820153  RH  026%=      5-min Rain = 0
KPA1 112102Z 15011KT 38/15 A2998 RMK A01 T03810152  RH  026%=      5-min Rain = 0
KPA1 112103Z 16009KT 38/15 A2998 RMK A01 T03800152  RH  026%=      5-min Rain = 0
KPA1 112104Z 15008KT 38/15 A2998 RMK A01 T03800152  RH  026%=      5-min Rain = 0
KPA1 112105Z 16008KT 38/15 A2998 RMK A01 T03790153  RH  026%=      5-min Rain = 0
KPA1 112106Z 17012KT 38/15 A2998 RMK A01 T03800154  RH  026%=      5-min Rain = 0
KPA1 112107Z 18008KT 38/15 A2998 RMK A01 T03810149  RH  025%=      5-min Rain = 0
KPA1 112108Z 17008G16KT 38/15 A2998 RMK A01 T03780151  RH  026%=      5-min Rain = 0
KPA1 112109Z 15011KT 38/15 A2998 RMK A01 T03790150  RH  026%=      5-min Rain = 0
KPA1 112110Z 17012KT 38/15 A2998 RMK A01 T03780151  RH  026%=      5-min Rain = 0
KPA1 112111Z 18009KT 38/15 A2998 RMK A01 T03760150  RH  026%=      5-min Rain = 0
KPA1 112112Z 14007KT 37/15 A2998 RMK A01 T03740150  RH  027%=      5-min Rain = 0
KPA1 112113Z 14008KT 38/15 A2998 RMK A01 T03760150  RH  026%=      5-min Rain = 0
KPA1 112114Z 15008KT 38/15 A2997 RMK A01 T03770149  RH  026%=      5-min Rain = 0
KPA1 112115Z 16010KT 38/15 A2997 RMK A01 T03760150  RH  026%=      5-min Rain = 0
KPA1 112116Z 17011KT 38/15 A2997 RMK A01 T03770150  RH  026%=      5-min Rain = 0
KPA1 112117Z 16010KT 38/15 A2997 RMK A01 T03790149  RH  026%=      5-min Rain = 0
KPA1 112118Z 17011KT 38/15 A2997 RMK A01 T03780147  RH  025%=      5-min Rain = 0
KPA1 112119Z 17011KT 38/15 A2997 RMK A01 T03780147  RH  025%=      5-min Rain = 0
KPA1 112120Z 18011KT 38/15 A2997 RMK A01 T03770148  RH  026%=      5-min Rain = 0
KPA1 112121Z 19009KT 38/15 A2997 RMK A01 T03760148  RH  026%=      5-min Rain = 0
KPA1 112122Z 18010KT 38/15 A2997 RMK A01 T03760149  RH  026%=      5-min Rain = 0
KPA1 112123Z 18011KT 38/15 A2997 RMK A01 T03760149  RH  026%=      5-min Rain = 0
KPA1 112124Z 18011KT 37/15 A2997 RMK A01 T03720149  RH  027%=      5-min Rain = 0
KPA1 112125Z 19009KT 37/15 A2997 RMK A01 T03670150  RH  028%=      5-min Rain = 0
KPA1 112126Z 18011G17KT 36/16 A2997 RMK A01 T03630157  RH  029%=      5-min Rain = 0
KPA1 112127Z 17016KT 36/15 A2997 RMK A01 T03640149  RH  028%=      5-min Rain = 0
KPA1 112128Z 17012G18KT 37/15 A2997 RMK A01 T03690146  RH  027%=      5-min Rain = 0
KPA1 112129Z 15013KT 37/15 A2997 RMK A01 T03730151  RH  027%=      5-min Rain = 0
KPA1 112130Z 15012KT 38/15 A2997 RMK A01 T03750153  RH  027%=      5-min Rain = 0
KPA1 112131Z 15011KT 37/16 A2997 RMK A01 T03710159  RH  029%=      5-min Rain = 0
KPA1 112132Z 16012KT 37/16 A2996 RMK A01 T03660155  RH  029%=      5-min Rain = 0
KPA1 112133Z 15011KT 37/15 A2996 RMK A01 T03670151  RH  028%=      5-min Rain = 0
KPA1 112134Z 16013KT 37/16 A2996 RMK A01 T03700156  RH  028%=      5-min Rain = 0
KPA1 112135Z 17012KT 37/15 A2996 RMK A01 T03700147  RH  027%=      5-min Rain = 0
KPA1 112136Z 18011KT 37/14 A2996 RMK A01 T03690144  RH  026%=      5-min Rain = 0
KPA1 112137Z 17016KT 37/15 A2996 RMK A01 T03690146  RH  027%=      5-min Rain = 0
KPA1 112138Z 18012KT 37/15 A2996 RMK A01 T03690147  RH  027%=      5-min Rain = 0
KPA1 112139Z 18011KT 37/15 A2996 RMK A01 T03710150  RH  027%=      5-min Rain = 0
KPA1 112140Z 16011G16KT 38/15 A2996 RMK A01 T03750153  RH  027%=      5-min Rain = 0
KPA1 112141Z 15013G18KT 38/16 A2996 RMK A01 T03780155  RH  027%=      5-min Rain = 0
KPA1 112142Z 17016KT 38/16 A2996 RMK A01 T03790155  RH  027%=      5-min Rain = 0
KPA1 112143Z 17016G21KT 38/15 A2996 RMK A01 T03800149  RH  026%=      5-min Rain = 0
KPA1 112144Z 17013KT 38/15 A2996 RMK A01 T03800150  RH  026%=      5-min Rain = 0
KPA1 112145Z 17013KT 38/15 A2996 RMK A01 T03790149  RH  026%=      5-min Rain = 0
KPA1 112146Z 17011KT 38/15 A2996 RMK A01 T03800150  RH  026%=      5-min Rain = 0
KPA1 112147Z 17013KT 38/15 A2996 RMK A01 T03800149  RH  025%=      5-min Rain = 0
KPA1 112148Z 17012KT 38/15 A2996 RMK A01 T03800148  RH  025%=      5-min Rain = 0
KPA1 112149Z 19012KT 38/15 A2996 RMK A01 T03810149  RH  025%=      5-min Rain = 0
KPA1 112150Z 16012KT 38/15 A2996 RMK A01 T03820154  RH  026%=      5-min Rain = 0
KPA1 112151Z 17013KT 38/15 A2996 RMK A01 T03830154  RH  026%=      5-min Rain = 0
KPA1 112152Z 18010KT 38/16 A2996 RMK A01 T03820158  RH  027%=      5-min Rain = 0
KPA1 112153Z 18012KT 38/15 A2996 RMK A01 T03810153  RH  026%=      5-min Rain = 0
KPA1 112154Z 17011KT 38/15 A2996 RMK A01 T03790148  RH  026%=      5-min Rain = 0
KPA1 112155Z 15009KT 38/15 A2996 RMK A01 T03790152  RH  026%=      5-min Rain = 0
KPA1 112156Z 16012KT 38/16 A2996 RMK A01 T03820157  RH  027%=      5-min Rain = 0
KPA1 112157Z 16014KT 38/16 A2996 RMK A01 T03830157  RH  027%=      5-min Rain = 0
KPA1 112158Z 16016KT 38/15 A2996 RMK A01 T03800154  RH  026%=      5-min Rain = 0
KPA1 112159Z 15015KT 38/15 A2996 RMK A01 T03790154  RH  026%=      5-min Rain = 0
KPA1 112200Z 14014KT 38/16 A2996 RMK A01 T03790157  RH  027%=      5-min Rain = 0
KPA1 112201Z 17012KT 38/16 A2996 RMK A01 T03790161  RH  028%=      5-min Rain = 0
KPA1 112202Z 17014KT 38/16 A2996 RMK A01 T03820156  RH  026%=      5-min Rain = 0
KPA1 112203Z 17013KT 38/15 A2996 RMK A01 T03830150  RH  025%=      5-min Rain = 0
KPA1 112204Z 17012KT 38/15 A2996 RMK A01 T03810150  RH  025%=      5-min Rain = 0
KPA1 112205Z 15014KT 38/15 A2996 RMK A01 T03810150  RH  026%=      5-min Rain = 0
KPA1 112206Z 15012KT 38/15 A2996 RMK A01 T03770151  RH  026%=      5-min Rain = 0
KPA1 112207Z 16012KT 37/15 A2996 RMK A01 T03720154  RH  028%=      5-min Rain = 0
KPA1 112208Z 16012KT 37/15 A2996 RMK A01 T03670153  RH  028%=      5-min Rain = 0
KPA1 112209Z 15012KT 36/15 A2996 RMK A01 T03630152  RH  028%=      5-min Rain = 0
KPA1 112210Z 14012KT 36/15 A2996 RMK A01 T03610154  RH  029%=      5-min Rain = 0
KPA1 112211Z 15015KT 36/16 A2996 RMK A01 T03580155  RH  030%=      5-min Rain = 0
KPA1 112212Z 15011KT 36/16 A2996 RMK A01 T03570158  RH  031%=      5-min Rain = 0
KPA1 112213Z 15009KT 36/16 A2996 RMK A01 T03580159  RH  031%=      5-min Rain = 0
KPA1 112214Z 16011KT 36/16 A2996 RMK A01 T03640161  RH  030%=      5-min Rain = 0
KPA1 112215Z 15012KT 37/15 A2996 RMK A01 T03690154  RH  028%=      5-min Rain = 0
KPA1 112216Z 15012KT 37/15 A2996 RMK A01 T03710154  RH  028%=      5-min Rain = 0
KPA1 112217Z 15010KT 37/15 A2996 RMK A01 T03700154  RH  028%=      5-min Rain = 0
KPA1 112218Z 15011KT 37/16 A2996 RMK A01 T03690155  RH  028%=      5-min Rain = 0
KPA1 112219Z 15013KT 37/16 A2996 RMK A01 T03680156  RH  028%=      5-min Rain = 0
KPA1 112220Z 15014KT 37/15 A2996 RMK A01 T03700153  RH  028%=      5-min Rain = 0
KPA1 112221Z 14014KT 37/15 A2996 RMK A01 T03730154  RH  027%=      5-min Rain = 0
KPA1 112222Z 14012KT 37/16 A2996 RMK A01 T03720155  RH  028%=      5-min Rain = 0
KPA1 112223Z 14009KT 37/16 A2996 RMK A01 T03690159  RH  029%=      5-min Rain = 0
KPA1 112224Z 14009KT 37/16 A2996 RMK A01 T03670162  RH  030%=      5-min Rain = 0
KPA1 112225Z 15009KT 37/16 A2996 RMK A01 T03680162  RH  030%=      5-min Rain = 0
KPA1 112226Z 15010KT 37/16 A2996 RMK A01 T03670159  RH  029%=      5-min Rain = 0
KPA1 112227Z 15009KT 37/16 A2996 RMK A01 T03670160  RH  029%=      5-min Rain = 0
KPA1 112228Z 16011KT 37/16 A2996 RMK A01 T03690159  RH  029%=      5-min Rain = 0
KPA1 112229Z 15011KT 37/16 A2996 RMK A01 T03720159  RH  028%=      5-min Rain = 0
KPA1 112230Z 15014KT 37/16 A2996 RMK A01 T03730157  RH  028%=      5-min Rain = 0
KPA1 112231Z 16010KT 38/15 A2996 RMK A01 T03750152  RH  027%=      5-min Rain = 0
KPA1 112232Z 16010KT 38/15 A2996 RMK A01 T03750153  RH  027%=      5-min Rain = 0
KPA1 112233Z 16010KT 38/15 A2996 RMK A01 T03760153  RH  027%=      5-min Rain = 0
KPA1 112234Z 16009KT 37/16 A2996 RMK A01 T03730155  RH  028%=      5-min Rain = 0
KPA1 112235Z 17012KT 37/16 A2996 RMK A01 T03700155  RH  028%=      5-min Rain = 0
KPA1 112236Z 16012KT 37/15 A2996 RMK A01 T03680153  RH  028%=      5-min Rain = 0
KPA1 112237Z 16013KT 37/15 A2996 RMK A01 T03680154  RH  028%=      5-min Rain = 0
KPA1 112238Z 16011KT 37/15 A2996 RMK A01 T03720154  RH  027%=      5-min Rain = 0
KPA1 112239Z 16012KT 38/15 A2996 RMK A01 T03750154  RH  027%=      5-min Rain = 0
KPA1 112240Z 17013KT 37/15 A2996 RMK A01 T03730153  RH  027%=      5-min Rain = 0
KPA1 112241Z 15012KT 37/16 A2996 RMK A01 T03740158  RH  028%=      5-min Rain = 0
KPA1 112242Z 15011KT 38/17 A2996 RMK A01 T03750165  RH  029%=      5-min Rain = 0
KPA1 112243Z 15011KT 38/16 A2996 RMK A01 T03750161  RH  028%=      5-min Rain = 0
KPA1 112244Z 15010KT 37/16 A2996 RMK A01 T03740163  RH  029%=      5-min Rain = 0
KPA1 112245Z 15009KT 37/16 A2996 RMK A01 T03730164  RH  029%=      5-min Rain = 0
KPA1 112246Z 14008KT 37/17 A2996 RMK A01 T03700165  RH  030%=      5-min Rain = 0
KPA1 112247Z 14009KT 37/16 A2996 RMK A01 T03670164  RH  030%=      5-min Rain = 0
KPA1 112248Z 14009KT 37/16 A2996 RMK A01 T03650164  RH  030%=      5-min Rain = 0
KPA1 112249Z 14008KT 37/16 A2996 RMK A01 T03650164  RH  030%=      5-min Rain = 0
KPA1 112250Z 13008KT 37/16 A2996 RMK A01 T03650162  RH  030%=      5-min Rain = 0
KPA1 112251Z 13008KT 37/16 A2996 RMK A01 T03650164  RH  031%=      5-min Rain = 0
KPA1 112252Z 14010KT 37/16 A2996 RMK A01 T03660162  RH  030%=      5-min Rain = 0
KPA1 112253Z 14010KT 36/16 A2996 RMK A01 T03630163  RH  031%=      5-min Rain = 0
KPA1 112254Z 15009KT 36/16 A2996 RMK A01 T03600164  RH  031%=      5-min Rain = 0
KPA1 112255Z 14009KT 36/16 A2996 RMK A01 T03590160  RH  031%=      5-min Rain = 0
KPA1 112256Z 14011KT 36/16 A2996 RMK A01 T03590158  RH  030%=      5-min Rain = 0
KPA1 112257Z 15010KT 36/16 A2996 RMK A01 T03620159  RH  030%=      5-min Rain = 0
KPA1 112258Z 14011KT 37/16 A2996 RMK A01 T03650158  RH  029%=      5-min Rain = 0
KPA1 112259Z 14011KT 37/15 A2996 RMK A01 T03680154  RH  028%=      5-min Rain = 0
KPA1 112300Z 14008KT 37/16 A2996 RMK A01 T03690155  RH  028%=      5-min Rain = 0
KPA1 112301Z 15008KT 37/15 A2996 RMK A01 T03680152  RH  028%=      5-min Rain = 0
KPA1 112302Z 15009KT 37/15 A2995 RMK A01 T03670151  RH  028%=      5-min Rain = 0
KPA1 112303Z 15009KT 37/15 A2995 RMK A01 T03650152  RH  028%=      5-min Rain = 0
KPA1 112304Z 15007KT 36/16 A2995 RMK A01 T03630156  RH  029%=      5-min Rain = 0
KPA1 112305Z 14007KT 36/16 A2995 RMK A01 T03600159  RH  030%=      5-min Rain = 0
KPA1 112306Z 14008KT 36/16 A2995 RMK A01 T03580160  RH  031%=      5-min Rain = 0
KPA1 112307Z 15008KT 36/16 A2996 RMK A01 T03570163  RH  032%=      5-min Rain = 0
KPA1 112308Z 14006KT 36/17 A2995 RMK A01 T03550168  RH  033%=      5-min Rain = 0
KPA1 112309Z 14007KT 35/17 A2995 RMK A01 T03520168  RH  034%=      5-min Rain = 0
KPA1 112310Z 14007KT 35/17 A2995 RMK A01 T03510165  RH  033%=      5-min Rain = 0
KPA1 112311Z 13005KT 35/16 A2995 RMK A01 T03510162  RH  032%=      5-min Rain = 0
KPA1 112312Z 13004KT 35/16 A2995 RMK A01 T03520162  RH  032%=      5-min Rain = 0
KPA1 112313Z 14002KT 35/16 A2995 RMK A01 T03530163  RH  032%=      5-min Rain = 0
KPA1 112314Z 13001KT 35/16 A2995 RMK A01 T03540164  RH  032%=      5-min Rain = 0
KPA1 112315Z 17002KT 36/17 A2995 RMK A01 T03550165  RH  032%=      5-min Rain = 0
KPA1 112316Z 13003KT 36/16 A2995 RMK A01 T03550163  RH  032%=      5-min Rain = 0
KPA1 112317Z 10003KT 35/16 A2995 RMK A01 T03540163  RH  032%=      5-min Rain = 0
KPA1 112318Z 12002KT 35/17 A2995 RMK A01 T03530165  RH  033%=      5-min Rain = 0
KPA1 112319Z 12002KT 35/16 A2995 RMK A01 T03510164  RH  033%=      5-min Rain = 0
KPA1 112320Z 10001KT 35/16 A2995 RMK A01 T03500160  RH  032%=      5-min Rain = 0
KPA1 112321Z 30001G6KT 35/16 A2995 RMK A01 T03510162  RH  033%=      5-min Rain = 0
KPA1 112322Z 29006KT 35/17 A2995 RMK A01 T03480170  RH  035%=      5-min Rain = 0
KPA1 112323Z 31006KT 34/17 A2996 RMK A01 T03380171  RH  037%=      5-min Rain = 0
KPA1 112324Z 33009KT 33/17 A2996 RMK A01 T03310172  RH  039%=      5-min Rain = 0
KPA1 112325Z 35011KT 33/17 A2996 RMK A01 T03270172  RH  040%=      5-min Rain = 0
KPA1 112326Z 36013KT 32/17 A2996 RMK A01 T03230170  RH  040%=      5-min Rain = 0
KPA1 112327Z 00014KT 32/17 A2996 RMK A01 T03190168  RH  040%=      5-min Rain = 0
KPA1 112328Z 36014KT 32/17 A2995 RMK A01 T03170169  RH  041%=      5-min Rain = 0
KPA1 112329Z 36013KT 32/17 A2995 RMK A01 T03150168  RH  042%=      5-min Rain = 0
KPA1 112330Z 01011KT 31/17 A2996 RMK A01 T03130167  RH  042%=      5-min Rain = 0
KPA1 112331Z 01010KT 31/17 A2996 RMK A01 T03130167  RH  042%=      5-min Rain = 0
KPA1 112332Z 00011KT 31/16 A2996 RMK A01 T03120163  RH  041%=      5-min Rain = 0
KPA1 112333Z 36009KT 31/16 A2996 RMK A01 T03130162  RH  040%=      5-min Rain = 0
KPA1 112334Z 34007KT 31/16 A2996 RMK A01 T03130161  RH  040%=      5-min Rain = 0
KPA1 112335Z 36007KT 31/16 A2996 RMK A01 T03140160  RH  039%=      5-min Rain = 0
KPA1 112336Z 36011KT 32/16 A2996 RMK A01 T03150158  RH  039%=      5-min Rain = 0
KPA1 112337Z 34009KT 31/16 A2995 RMK A01 T03140156  RH  039%=      5-min Rain = 0
KPA1 112338Z 34009KT 31/16 A2995 RMK A01 T03120156  RH  039%=      5-min Rain = 0
KPA1 112339Z 35009KT 31/16 A2995 RMK A01 T03110157  RH  039%=      5-min Rain = 0
KPA1 112340Z 35009KT 31/16 A2995 RMK A01 T03110157  RH  039%=      5-min Rain = 0
KPA1 112341Z 36009KT 31/16 A2995 RMK A01 T03100156  RH  039%=      5-min Rain = 0
KPA1 112342Z 36007KT 31/16 A2995 RMK A01 T03100156  RH  040%=      5-min Rain = 0
KPA1 112343Z 00010KT 31/16 A2995 RMK A01 T03100157  RH  040%=      5-min Rain = 0
KPA1 112344Z 00011KT 31/16 A2995 RMK A01 T03100155  RH  039%=      5-min Rain = 0
KPA1 112345Z 01010KT 31/16 A2995 RMK A01 T03110155  RH  039%=      5-min Rain = 0
KPA1 112346Z 01008KT 31/16 A2995 RMK A01 T03110155  RH  039%=      5-min Rain = 0
KPA1 112347Z 00008KT 31/16 A2995 RMK A01 T03100156  RH  039%=      5-min Rain = 0
KPA1 112348Z 35011KT 31/16 A2995 RMK A01 T03100156  RH  039%=      5-min Rain = 0
KPA1 112349Z 34011KT 31/16 A2995 RMK A01 T03110156  RH  039%=      5-min Rain = 0
KPA1 112350Z 34009KT 31/16 A2995 RMK A01 T03120156  RH  039%=      5-min Rain = 0
KPA1 112351Z 34010KT 31/16 A2995 RMK A01 T03120156  RH  039%=      5-min Rain = 0
KPA1 112352Z 33012KT 31/16 A2995 RMK A01 T03120156  RH  039%=      5-min Rain = 0
KPA1 112353Z 34010KT 31/16 A2995 RMK A01 T03120156  RH  039%=      5-min Rain = 0
KPA1 112354Z 34007KT 31/16 A2995 RMK A01 T03110155  RH  039%=      5-min Rain = 0
KPA1 112355Z 34006KT 31/16 A2995 RMK A01 T03130157  RH  039%=      5-min Rain = 0
KPA1 112356Z 35011KT 32/16 A2995 RMK A01 T03160157  RH  038%=      5-min Rain = 0
KPA1 112357Z 36010KT 32/15 A2995 RMK A01 T03170154  RH  037%=      5-min Rain = 0
KPA1 112358Z 35010KT 32/16 A2996 RMK A01 T03150155  RH  038%=      5-min Rain = 0
KPA1 112359Z 35010KT 32/16 A2995 RMK A01 T03150155  RH  038%=      5-min Rain = 0
KPA1 120000Z 35011KT 31/16 A2995 RMK A01 T03140156  RH  039%=      5-min Rain = 0
KPA1 120001Z 36010KT 31/16 A2995 RMK A01 T03120156  RH  039%=      5-min Rain = 0
KPA1 120002Z 00011KT 31/16 A2995 RMK A01 T03110156  RH  039%=      5-min Rain = 0
KPA1 120003Z 00011KT 31/16 A2996 RMK A01 T03110156  RH  039%=      5-min Rain = 0
KPA1 120004Z 00010KT 31/16 A2996 RMK A01 T03100157  RH  040%=      5-min Rain = 0
KPA1 120005Z 00011KT 31/16 A2996 RMK A01 T03100156  RH  039%=      5-min Rain = 0
KPA1 120006Z 00010KT 31/16 A2995 RMK A01 T03100157  RH  040%=      5-min Rain = 0
KPA1 120007Z 00011KT 31/16 A2995 RMK A01 T03090157  RH  040%=      5-min Rain = 0
KPA1 120008Z 35009KT 31/16 A2995 RMK A01 T03090158  RH  040%=      5-min Rain = 0
KPA1 120009Z 35010KT 31/16 A2995 RMK A01 T03090158  RH  040%=      5-min Rain = 0
KPA1 120010Z 35007KT 31/16 A2995 RMK A01 T03080158  RH  040%=      5-min Rain = 0
KPA1 120011Z 36006KT 31/16 A2995 RMK A01 T03080158  RH  040%=      5-min Rain = 0
KPA1 120012Z 00007KT 31/16 A2995 RMK A01 T03080159  RH  041%=      5-min Rain = 0
KPA1 120013Z 00008KT 31/16 A2995 RMK A01 T03080160  RH  041%=      5-min Rain = 0
KPA1 120014Z 36008KT 31/16 A2995 RMK A01 T03070160  RH  041%=      5-min Rain = 0
KPA1 120015Z 35007KT 31/16 A2995 RMK A01 T03060160  RH  041%=      5-min Rain = 0
KPA1 120016Z 00006KT 31/16 A2996 RMK A01 T03060160  RH  042%=      5-min Rain = 0
KPA1 120017Z 01006KT 31/16 A2996 RMK A01 T03050160  RH  041%=      5-min Rain = 0
KPA1 120018Z 01008KT 31/16 A2996 RMK A01 T03050160  RH  041%=      5-min Rain = 0
KPA1 120019Z 36007KT 31/16 A2996 RMK A01 T03060160  RH  042%=      5-min Rain = 0
KPA1 120020Z 00008KT 31/16 A2996 RMK A01 T03050160  RH  042%=      5-min Rain = 0
KPA1 120021Z 00008KT 30/16 A2996 RMK A01 T03040159  RH  042%=      5-min Rain = 0
KPA1 120022Z 00007KT 30/16 A2996 RMK A01 T03040160  RH  042%=      5-min Rain = 0
KPA1 120023Z 36006KT 30/16 A2996 RMK A01 T03030161  RH  042%=      5-min Rain = 0
KPA1 120024Z 00005KT 30/16 A2996 RMK A01 T03030161  RH  042%=      5-min Rain = 0
KPA1 120025Z 36005KT 30/16 A2996 RMK A01 T03030161  RH  042%=      5-min Rain = 0
KPA1 120026Z 01003KT 30/16 A2996 RMK A01 T03030162  RH  042%=      5-min Rain = 0
KPA1 120027Z 35003KT 30/16 A2996 RMK A01 T03040162  RH  042%=      5-min Rain = 0
KPA1 120028Z 35004KT 30/16 A2996 RMK A01 T03040162  RH  042%=      5-min Rain = 0
KPA1 120029Z 35004KT 31/16 A2996 RMK A01 T03050161  RH  042%=      5-min Rain = 0
KPA1 120030Z 36004KT 31/16 A2996 RMK A01 T03060162  RH  042%=      5-min Rain = 0
KPA1 120031Z 00004KT 31/16 A2996 RMK A01 T03070163  RH  042%=      5-min Rain = 0
KPA1 120032Z 01004KT 31/16 A2996 RMK A01 T03070162  RH  042%=      5-min Rain = 0
KPA1 120033Z 01004KT 31/16 A2996 RMK A01 T03070163  RH  042%=      5-min Rain = 0
KPA1 120034Z 01005KT 31/16 A2996 RMK A01 T03070163  RH  042%=      5-min Rain = 0
KPA1 120035Z 02005KT 31/16 A2996 RMK A01 T03060163  RH  042%=      5-min Rain = 0
KPA1 120036Z 02005KT 31/16 A2996 RMK A01 T03060161  RH  042%=      5-min Rain = 0
KPA1 120037Z 01005KT 31/16 A2996 RMK A01 T03050160  RH  042%=      5-min Rain = 0
KPA1 120038Z 02005KT 30/16 A2996 RMK A01 T03040159  RH  042%=      5-min Rain = 0
KPA1 120039Z 01005KT 30/16 A2996 RMK A01 T03040159  RH  042%=      5-min Rain = 0
KPA1 120040Z 01006KT 30/16 A2996 RMK A01 T03040159  RH  042%=      5-min Rain = 0
KPA1 120041Z 01006KT 30/16 A2996 RMK A01 T03040158  RH  041%=      5-min Rain = 0
KPA1 120042Z 01005KT 30/16 A2996 RMK A01 T03040160  RH  042%=      5-min Rain = 0
KPA1 120043Z 00005KT 30/16 A2996 RMK A01 T03040160  RH  042%=      5-min Rain = 0
KPA1 120044Z 00005KT 30/16 A2996 RMK A01 T03040159  RH  042%=      5-min Rain = 0
KPA1 120045Z 00004KT 30/16 A2996 RMK A01 T03030161  RH  042%=      5-min Rain = 0
KPA1 120046Z 01004KT 30/16 A2996 RMK A01 T03030162  RH  043%=      5-min Rain = 0
KPA1 120047Z 02005KT 30/16 A2996 RMK A01 T03020161  RH  043%=      5-min Rain = 0
KPA1 120048Z 02005KT 30/16 A2996 RMK A01 T03020160  RH  042%=      5-min Rain = 0
KPA1 120049Z 01006KT 30/16 A2996 RMK A01 T03020160  RH  042%=      5-min Rain = 0
KPA1 120050Z 02005KT 30/16 A2996 RMK A01 T03020160  RH  043%=      5-min Rain = 0
KPA1 120051Z 02005KT 30/16 A2996 RMK A01 T03010159  RH  042%=      5-min Rain = 0
KPA1 120052Z 02005KT 30/16 A2996 RMK A01 T03010159  RH  042%=      5-min Rain = 0
KPA1 120053Z 02006KT 30/16 A2996 RMK A01 T03010159  RH  042%=      5-min Rain = 0
KPA1 120054Z 02006KT 30/16 A2996 RMK A01 T03020159  RH  042%=      5-min Rain = 0
KPA1 120055Z 01006KT 30/16 A2996 RMK A01 T03010159  RH  042%=      5-min Rain = 0
KPA1 120056Z 03007KT 30/16 A2996 RMK A01 T03020159  RH  042%=      5-min Rain = 0
KPA1 120057Z 04005KT 30/16 A2996 RMK A01 T03010159  RH  042%=      5-min Rain = 0
KPA1 120058Z 04005KT 30/16 A2996 RMK A01 T03010161  RH  043%=      5-min Rain = 0
KPA1 120059Z 05005KT 30/17 A2996 RMK A01 T03000165  RH  044%=      5-min Rain = 0
KPA1 120100Z 05004KT 30/17 A2996 RMK A01 T02970169  RH  046%=      5-min Rain = 0
KPA1 120101Z 04004KT 29/17 A2996 RMK A01 T02930165  RH  046%=      5-min Rain = 0
KPA1 120102Z 04004KT 29/16 A2996 RMK A01 T02920163  RH  046%=      5-min Rain = 0
KPA1 120103Z 05005KT 29/16 A2996 RMK A01 T02910164  RH  046%=      5-min Rain = 0
KPA1 120104Z 04004KT 29/17 A2996 RMK A01 T02910167  RH  047%=      5-min Rain = 0
KPA1 120105Z 03004KT 29/17 A2996 RMK A01 T02900169  RH  048%=      5-min Rain = 0
KPA1 120106Z 02004KT 29/17 A2996 RMK A01 T02890169  RH  048%=      5-min Rain = 0
KPA1 120107Z 02004KT 29/17 A2996 RMK A01 T02880168  RH  048%=      5-min Rain = 0
KPA1 120108Z 01004KT 29/17 A2996 RMK A01 T02880169  RH  049%=      5-min Rain = 0
KPA1 120109Z 02004KT 29/17 A2997 RMK A01 T02870169  RH  049%=      5-min Rain = 0
KPA1 120110Z 01004KT 29/17 A2997 RMK A01 T02870167  RH  048%=      5-min Rain = 0
KPA1 120111Z 01004KT 29/16 A2997 RMK A01 T02870162  RH  047%=      5-min Rain = 0
KPA1 120112Z 35004KT 29/16 A2997 RMK A01 T02890164  RH  047%=      5-min Rain = 0
KPA1 120113Z 00005KT 29/16 A2997 RMK A01 T02890164  RH  047%=      5-min Rain = 0
KPA1 120114Z 35005KT 29/16 A2997 RMK A01 T02890159  RH  045%=      5-min Rain = 0
KPA1 120115Z 01005KT 29/16 A2997 RMK A01 T02910159  RH  045%=      5-min Rain = 0
KPA1 120116Z 00004KT 29/16 A2997 RMK A01 T02930159  RH  044%=      5-min Rain = 0
KPA1 120117Z 00005KT 29/16 A2997 RMK A01 T02940159  RH  044%=      5-min Rain = 0
KPA1 120118Z 01005KT 29/16 A2997 RMK A01 T02940158  RH  044%=      5-min Rain = 0
KPA1 120119Z 02005KT 29/16 A2997 RMK A01 T02940158  RH  044%=      5-min Rain = 0
KPA1 120120Z 02005KT 29/16 A2997 RMK A01 T02940159  RH  044%=      5-min Rain = 0
KPA1 120121Z 03006KT 29/16 A2997 RMK A01 T02940160  RH  044%=      5-min Rain = 0
KPA1 120122Z 03007KT 29/16 A2997 RMK A01 T02930163  RH  045%=      5-min Rain = 0
KPA1 120123Z 02007KT 29/16 A2997 RMK A01 T02910164  RH  046%=      5-min Rain = 0
KPA1 120124Z 01007KT 29/16 A2997 RMK A01 T02900164  RH  046%=      5-min Rain = 0
KPA1 120125Z 02007KT 29/16 A2997 RMK A01 T02890164  RH  047%=      5-min Rain = 0
KPA1 120126Z 01008KT 29/16 A2997 RMK A01 T02890161  RH  046%=      5-min Rain = 0
KPA1 120127Z 01008KT 29/16 A2997 RMK A01 T02900160  RH  045%=      5-min Rain = 0
KPA1 120128Z 00007KT 29/16 A2997 RMK A01 T02910161  RH  045%=      5-min Rain = 0
KPA1 120129Z 35008KT 29/16 A2997 RMK A01 T02920160  RH  045%=      5-min Rain = 0
KPA1 120130Z 34008KT 29/16 A2997 RMK A01 T02920160  RH  045%=      5-min Rain = 0
KPA1 120131Z 34009KT 29/16 A2997 RMK A01 T02920160  RH  045%=      5-min Rain = 0
KPA1 120132Z 34010KT 29/16 A2997 RMK A01 T02920162  RH  045%=      5-min Rain = 0
KPA1 120133Z 34010KT 29/16 A2997 RMK A01 T02920162  RH  045%=      5-min Rain = 0
KPA1 120134Z 33010KT 29/16 A2997 RMK A01 T02920162  RH  045%=      5-min Rain = 0
KPA1 120135Z 33010KT 29/16 A2997 RMK A01 T02920161  RH  045%=      5-min Rain = 0
KPA1 120136Z 34008KT 29/16 A2997 RMK A01 T02920161  RH  045%=      5-min Rain = 0
KPA1 120137Z 34008KT 29/16 A2997 RMK A01 T02920159  RH  045%=      5-min Rain = 0
KPA1 120138Z 34007KT 29/16 A2997 RMK A01 T02920157  RH  044%=      5-min Rain = 0
KPA1 120139Z 35005KT 29/16 A2997 RMK A01 T02920159  RH  044%=      5-min Rain = 0
KPA1 120140Z 35003KT 29/16 A2997 RMK A01 T02920160  RH  045%=      5-min Rain = 0
KPA1 120141Z 06001KT 29/16 A2997 RMK A01 T02910160  RH  045%=      5-min Rain = 0
KPA1 120142Z 13001KT 29/16 A2997 RMK A01 T02910160  RH  045%=      5-min Rain = 0
KPA1 120143Z 13000KT 29/16 A2997 RMK A01 T02900160  RH  045%=      5-min Rain = 0
KPA1 120144Z 01000KT 29/16 A2997 RMK A01 T02900159  RH  045%=      5-min Rain = 0
KPA1 120145Z 00000KT 29/16 A2997 RMK A01 T02900159  RH  045%=      5-min Rain = 0
KPA1 120146Z 01000KT 29/16 A2997 RMK A01 T02900160  RH  045%=      5-min Rain = 0
KPA1 120147Z 00000KT 29/16 A2997 RMK A01 T02900159  RH  045%=      5-min Rain = 0
KPA1 120148Z 00000KT 29/16 A2997 RMK A01 T02900160  RH  045%=      5-min Rain = 0
KPA1 120149Z 31000KT 29/16 A2997 RMK A01 T02900160  RH  045%=      5-min Rain = 0
KPA1 120150Z 31002KT 29/16 A2997 RMK A01 T02890160  RH  045%=      5-min Rain = 0
KPA1 120151Z 29003KT 29/16 A2997 RMK A01 T02890160  RH  046%=      5-min Rain = 0
KPA1 120152Z 28003KT 29/16 A2998 RMK A01 T02880162  RH  046%=      5-min Rain = 0
KPA1 120153Z 30003KT 29/16 A2998 RMK A01 T02870162  RH  047%=      5-min Rain = 0
KPA1 120154Z 32004KT 29/16 A2998 RMK A01 T02850162  RH  047%=      5-min Rain = 0
KPA1 120155Z 31004KT 29/16 A2998 RMK A01 T02850161  RH  047%=      5-min Rain = 0
KPA1 120156Z 32004KT 29/16 A2998 RMK A01 T02850164  RH  048%=      5-min Rain = 0
KPA1 120157Z 33004KT 29/17 A2997 RMK A01 T02850165  RH  048%=      5-min Rain = 0
KPA1 120158Z 33003KT 28/17 A2998 RMK A01 T02840166  RH  049%=      5-min Rain = 0
KPA1 120159Z 33004KT 28/17 A2998 RMK A01 T02830166  RH  049%=      5-min Rain = 0
KPA1 120200Z 34004KT 28/17 A2998 RMK A01 T02820167  RH  050%=      5-min Rain = 0
KPA1 120201Z 35004KT 28/17 A2998 RMK A01 T02820168  RH  050%=      5-min Rain = 0
KPA1 120202Z 34004KT 28/17 A2998 RMK A01 T02810168  RH  050%=      5-min Rain = 0
KPA1 120203Z 24006KT 28/17 A2998 RMK A01 T02800169  RH  051%=      5-min Rain = 0
KPA1 120204Z 25005KT 28/17 A2998 RMK A01 T02770170  RH  052%=      5-min Rain = 0
KPA1 120205Z 31004KT 28/17 A2998 RMK A01 T02760169  RH  052%=      5-min Rain = 0
KPA1 120206Z 31005KT 28/17 A2998 RMK A01 T02770169  RH  052%=      5-min Rain = 0
KPA1 120207Z 29005KT 28/17 A2998 RMK A01 T02780171  RH  052%=      5-min Rain = 0
KPA1 120208Z 30005KT 28/17 A2998 RMK A01 T02770171  RH  053%=      5-min Rain = 0
KPA1 120209Z 30005KT 28/17 A2998 RMK A01 T02760171  RH  053%=      5-min Rain = 0
KPA1 120210Z 31005KT 28/17 A2998 RMK A01 T02750172  RH  053%=      5-min Rain = 0
KPA1 120211Z 30008KT 28/17 A2998 RMK A01 T02750171  RH  053%=      5-min Rain = 0
KPA1 120212Z 31010KT 27/17 A2998 RMK A01 T02740169  RH  053%=      5-min Rain = 0
KPA1 120213Z 32010KT 27/17 A2998 RMK A01 T02740167  RH  052%=      5-min Rain = 0
KPA1 120214Z 31009KT 27/17 A2998 RMK A01 T02740166  RH  052%=      5-min Rain = 0
KPA1 120215Z 31011KT 27/17 A2998 RMK A01 T02740167  RH  052%=      5-min Rain = 0
KPA1 120216Z 32011KT 27/17 A2998 RMK A01 T02730167  RH  052%=      5-min Rain = 0
KPA1 120217Z 32011KT 27/17 A2998 RMK A01 T02720168  RH  053%=      5-min Rain = 0
KPA1 120218Z 32012KT 27/17 A2998 RMK A01 T02710167  RH  053%=      5-min Rain = 0
KPA1 120219Z 32011KT 27/17 A2998 RMK A01 T02710167  RH  053%=      5-min Rain = 0
KPA1 120220Z 32010KT 27/17 A2998 RMK A01 T02700168  RH  053%=      5-min Rain = 0
KPA1 120221Z 32009KT 27/17 A2998 RMK A01 T02700168  RH  054%=      5-min Rain = 0
KPA1 120222Z 32010KT 27/17 A2998 RMK A01 T02690168  RH  054%=      5-min Rain = 0
KPA1 120223Z 31009KT 27/17 A2998 RMK A01 T02690167  RH  054%=      5-min Rain = 0
KPA1 120224Z 31007KT 27/17 A2999 RMK A01 T02690167  RH  054%=      5-min Rain = 0
KPA1 120225Z 31005KT 27/17 A2999 RMK A01 T02690167  RH  054%=      5-min Rain = 0
KPA1 120226Z 31007KT 27/17 A2999 RMK A01 T02680167  RH  054%=      5-min Rain = 0
KPA1 120227Z 31008KT 27/17 A2999 RMK A01 T02680168  RH  054%=      5-min Rain = 0
KPA1 120228Z 31009KT 27/17 A2999 RMK A01 T02670167  RH  054%=      5-min Rain = 0
KPA1 120229Z 32009KT 27/17 A30 RMK A01 T02670168  RH  054%=      5-min Rain = 0
KPA1 120230Z 32009KT 27/17 A30 RMK A01 T02670168  RH  054%=      5-min Rain = 0
KPA1 120231Z 31010KT 27/17 A30 RMK A01 T02670167  RH  054%=      5-min Rain = 0
KPA1 120232Z 31010KT 27/17 A30 RMK A01 T02670168  RH  054%=      5-min Rain = 0
KPA1 120233Z 30009KT 27/17 A30 RMK A01 T02670168  RH  054%=      5-min Rain = 0
KPA1 120234Z 31008KT 27/17 A30 RMK A01 T02680169  RH  055%=      5-min Rain = 0
KPA1 120235Z 31009KT 27/17 A3001 RMK A01 T02680169  RH  055%=      5-min Rain = 0
KPA1 120236Z 31010KT 27/17 A3001 RMK A01 T02670169  RH  055%=      5-min Rain = 0
KPA1 120237Z 31010KT 27/17 A3001 RMK A01 T02660169  RH  055%=      5-min Rain = 0
KPA1 120238Z 32010KT 27/17 A3001 RMK A01 T02660170  RH  055%=      5-min Rain = 0
KPA1 120239Z 32012KT 27/17 A3001 RMK A01 T02660170  RH  056%=      5-min Rain = 0
KPA1 120240Z 31012KT 27/17 A3002 RMK A01 T02660170  RH  056%=      5-min Rain = 0
KPA1 120241Z 31013KT 27/17 A3002 RMK A01 T02650170  RH  056%=      5-min Rain = 0
KPA1 120242Z 31013KT 26/17 A3002 RMK A01 T02640171  RH  057%=      5-min Rain = 0
KPA1 120243Z 30012KT 26/17 A3002 RMK A01 T02640172  RH  057%=      5-min Rain = 0
KPA1 120244Z 31020KT 26/17 A3002 RMK A01 T02630173  RH  057%=      5-min Rain = 0
KPA1 120245Z 30019KT 26/17 A3002 RMK A01 T02620174  RH  058%=      5-min Rain = 0
KPA1 120246Z 30017KT 26/18 A3003 RMK A01 T02600175  RH  059%=      5-min Rain = 0
KPA1 120247Z 30014KT 26/18 A3003 RMK A01 T02580176  RH  060%=      5-min Rain = 0
KPA1 120248Z 30015KT 26/18 A3003 RMK A01 T02580176  RH  061%=      5-min Rain = 0
KPA1 120249Z 30016KT 26/18 A3003 RMK A01 T02570177  RH  062%=      5-min Rain = 0
KPA1 120250Z 30018KT 26/18 A3003 RMK A01 T02560179  RH  062%=      5-min Rain = 0
KPA1 120251Z 30016KT 26/18 A3003 RMK A01 T02550180  RH  063%=      5-min Rain = 0
KPA1 120252Z 30015KT 26/18 A3003 RMK A01 T02550181  RH  063%=      5-min Rain = 0
KPA1 120253Z 31012G17KT 25/18 A3003 RMK A01 T02540180  RH  064%=      5-min Rain = 0
KPA1 120254Z 31012KT 25/18 A3004 RMK A01 T02540181  RH  064%=      5-min Rain = 0
KPA1 120255Z 31012KT 25/18 A3004 RMK A01 T02540181  RH  064%=      5-min Rain = 0
KPA1 120256Z 31017KT 25/18 A3004 RMK A01 T02540183  RH  065%=      5-min Rain = 0
KPA1 120257Z 31016KT 25/18 A3004 RMK A01 T02530184  RH  065%=      5-min Rain = 0
KPA1 120258Z 30016KT 25/19 A3004 RMK A01 T02520185  RH  066%=      5-min Rain = 0
KPA1 120259Z 31016KT 25/19 A3004 RMK A01 T02500185  RH  067%=      5-min Rain = 0
KPA1 120300Z 31015G20KT 25/19 A3004 RMK A01 T02490186  RH  068%=      5-min Rain = 0
KPA1 120301Z 30017KT 25/19 A3004 RMK A01 T02470185  RH  069%=      5-min Rain = 0
KPA1 120302Z 30017KT 25/19 A3004 RMK A01 T02450185  RH  069%=      5-min Rain = 0
KPA1 120303Z 30015KT 25/19 A3004 RMK A01 T02450185  RH  069%=      5-min Rain = 0
KPA1 120304Z 30014KT 24/18 A3004 RMK A01 T02440184  RH  069%=      5-min Rain = 0
KPA1 120305Z 31017G22KT 24/18 A3004 RMK A01 T02440184  RH  069%=      5-min Rain = 0
KPA1 120306Z 30016KT 24/18 A3005 RMK A01 T02430183  RH  069%=      5-min Rain = 0
KPA1 120307Z 30014KT 24/18 A3005 RMK A01 T02420183  RH  069%=      5-min Rain = 0
KPA1 120308Z 30014KT 24/18 A3005 RMK A01 T02410183  RH  070%=      5-min Rain = 0
KPA1 120309Z 31013KT 24/18 A3005 RMK A01 T02410183  RH  070%=      5-min Rain = 0
KPA1 120310Z 31013KT 24/18 A3005 RMK A01 T02400182  RH  070%=      5-min Rain = 0
KPA1 120311Z 31013KT 24/18 A3005 RMK A01 T02400181  RH  070%=      5-min Rain = 0
KPA1 120312Z 31015KT 24/18 A3005 RMK A01 T02390179  RH  069%=      5-min Rain = 0
KPA1 120313Z 31014KT 24/18 A3005 RMK A01 T02390179  RH  069%=      5-min Rain = 0
KPA1 120314Z 31012KT 24/18 A3006 RMK A01 T02380180  RH  070%=      5-min Rain = 0
KPA1 120315Z 31012KT 24/18 A3006 RMK A01 T02380180  RH  070%=      5-min Rain = 0
KPA1 120316Z 31014KT 24/18 A3006 RMK A01 T02370180  RH  070%=      5-min Rain = 0
KPA1 120317Z 31013KT 24/18 A3006 RMK A01 T02370180  RH  070%=      5-min Rain = 0
KPA1 120318Z 30011KT 24/18 A3007 RMK A01 T02360180  RH  071%=      5-min Rain = 0
KPA1 120319Z 30010KT 24/18 A3007 RMK A01 T02360180  RH  071%=      5-min Rain = 0
KPA1 120320Z 31010KT 24/18 A3007 RMK A01 T02350180  RH  071%=      5-min Rain = 0
KPA1 120321Z 30010KT 24/18 A3007 RMK A01 T02350179  RH  071%=      5-min Rain = 0
KPA1 120322Z 30013KT 23/18 A3006 RMK A01 T02340179  RH  071%=      5-min Rain = 0
KPA1 120323Z 30014KT 23/18 A3007 RMK A01 T02320178  RH  072%=      5-min Rain = 0
KPA1 120324Z 30014KT 23/18 A3007 RMK A01 T02300179  RH  073%=      5-min Rain = 0
KPA1 120325Z 30011KT 23/18 A3007 RMK A01 T02290179  RH  073%=      5-min Rain = 0
KPA1 120326Z 30012KT 23/18 A3007 RMK A01 T02280179  RH  074%=      5-min Rain = 0
KPA1 120327Z 30015KT 23/18 A3007 RMK A01 T02270179  RH  074%=      5-min Rain = 0
KPA1 120328Z 30013KT 23/18 A3007 RMK A01 T02260179  RH  075%=      5-min Rain = 0
KPA1 120329Z 29012KT 23/18 A3008 RMK A01 T02260180  RH  075%=      5-min Rain = 0
KPA1 120330Z 29012KT 23/18 A3008 RMK A01 T02250179  RH  075%=      5-min Rain = 0
KPA1 120331Z 30011KT 23/18 A3008 RMK A01 T02250180  RH  076%=      5-min Rain = 0
KPA1 120332Z 30010KT 22/18 A3008 RMK A01 T02240180  RH  076%=      5-min Rain = 0
KPA1 120333Z 30009KT 22/18 A3008 RMK A01 T02240180  RH  076%=      5-min Rain = 0
KPA1 120334Z 30009KT 22/18 A3008 RMK A01 T02240180  RH  076%=      5-min Rain = 0
KPA1 120335Z 29008KT 22/18 A3008 RMK A01 T02240180  RH  076%=      5-min Rain = 0
KPA1 120336Z 29008KT 22/18 A3008 RMK A01 T02240180  RH  076%=      5-min Rain = 0
KPA1 120337Z 29010KT 22/18 A3008 RMK A01 T02230179  RH  076%=      5-min Rain = 0
KPA1 120338Z 29009KT 22/18 A3008 RMK A01 T02240179  RH  076%=      5-min Rain = 0
KPA1 120339Z 29010KT 22/18 A3008 RMK A01 T02240179  RH  075%=      5-min Rain = 0
KPA1 120340Z 29010KT 23/18 A3008 RMK A01 T02250179  RH  075%=      5-min Rain = 0
KPA1 120341Z 30008KT 23/18 A3008 RMK A01 T02250178  RH  075%=      5-min Rain = 0
KPA1 120342Z 30009KT 23/18 A3008 RMK A01 T02250179  RH  075%=      5-min Rain = 0
KPA1 120343Z 30011KT 23/18 A3008 RMK A01 T02250179  RH  075%=      5-min Rain = 0
KPA1 120344Z 29011KT 23/18 A3008 RMK A01 T02250179  RH  075%=      5-min Rain = 0
KPA1 120345Z 30012KT 23/18 A3008 RMK A01 T02250179  RH  075%=      5-min Rain = 0
KPA1 120346Z 30011KT 23/18 A3008 RMK A01 T02250179  RH  075%=      5-min Rain = 0
KPA1 120347Z 30011KT 23/18 A3008 RMK A01 T02250179  RH  075%=      5-min Rain = 0
KPA1 120348Z 29011KT 23/18 A3008 RMK A01 T02250179  RH  075%=      5-min Rain = 0
KPA1 120349Z 29009KT 23/18 A3008 RMK A01 T02250179  RH  075%=      5-min Rain = 0
KPA1 120350Z 29010KT 23/18 A3008 RMK A01 T02250179  RH  075%=      5-min Rain = 0
KPA1 120351Z 29009KT 22/18 A3008 RMK A01 T02240179  RH  076%=      5-min Rain = 0
KPA1 120352Z 29008KT 22/18 A3008 RMK A01 T02240179  RH  076%=      5-min Rain = 0
KPA1 120353Z 29008KT 22/18 A3008 RMK A01 T02230179  RH  076%=      5-min Rain = 0
KPA1 120354Z 29008KT 22/18 A3008 RMK A01 T02230179  RH  076%=      5-min Rain = 0
KPA1 120355Z 29009KT 22/18 A3009 RMK A01 T02230180  RH  077%=      5-min Rain = 0
KPA1 120356Z 29009KT 22/18 A3009 RMK A01 T02230180  RH  077%=      5-min Rain = 0
KPA1 120357Z 30010KT 22/18 A3009 RMK A01 T02230179  RH  076%=      5-min Rain = 0
KPA1 120358Z 30008KT 22/18 A3009 RMK A01 T02230179  RH  076%=      5-min Rain = 0
KPA1 120359Z 30010KT 22/18 A3008 RMK A01 T02240179  RH  076%=      5-min Rain = 0
KPA1 120400Z 31009KT 22/18 A3008 RMK A01 T02240179  RH  075%=      5-min Rain = 0
KPA1 120401Z 31010KT 23/18 A3008 RMK A01 T02250178  RH  075%=      5-min Rain = 0
KPA1 120402Z 31011KT 23/18 A3008 RMK A01 T02260178  RH  074%=      5-min Rain = 0
KPA1 120403Z 31010KT 23/18 A3008 RMK A01 T02270178  RH  074%=      5-min Rain = 0
KPA1 120404Z 31010KT 23/18 A3008 RMK A01 T02270178  RH  074%=      5-min Rain = 0
KPA1 120405Z 31010KT 23/18 A3008 RMK A01 T02270178  RH  074%=      5-min Rain = 0
KPA1 120406Z 31008KT 23/18 A3008 RMK A01 T02270178  RH  074%=      5-min Rain = 0
KPA1 120407Z 32009KT 23/18 A3008 RMK A01 T02270178  RH  074%=      5-min Rain = 0
KPA1 120408Z 31008KT 23/18 A3008 RMK A01 T02270179  RH  074%=      5-min Rain = 0
KPA1 120409Z 31009KT 23/18 A3008 RMK A01 T02260178  RH  074%=      5-min Rain = 0
KPA1 120410Z 32008KT 23/18 A3008 RMK A01 T02260178  RH  074%=      5-min Rain = 0
KPA1 120411Z 32007KT 23/18 A3008 RMK A01 T02260177  RH  074%=      5-min Rain = 0
KPA1 120412Z 32008KT 23/18 A3008 RMK A01 T02260177  RH  074%=      5-min Rain = 0
KPA1 120413Z 32008KT 23/18 A3008 RMK A01 T02260177  RH  074%=      5-min Rain = 0
KPA1 120414Z 32007KT 23/18 A3008 RMK A01 T02260177  RH  073%=      5-min Rain = 0
KPA1 120415Z 31008KT 23/18 A3008 RMK A01 T02270177  RH  073%=      5-min Rain = 0
KPA1 120416Z 32008KT 23/18 A3008 RMK A01 T02270177  RH  073%=      5-min Rain = 0
KPA1 120417Z 31007KT 23/18 A3008 RMK A01 T02270177  RH  073%=      5-min Rain = 0
KPA1 120418Z 31007KT 23/18 A3008 RMK A01 T02260177  RH  073%=      5-min Rain = 0
KPA1 120419Z 31006KT 23/18 A3008 RMK A01 T02260176  RH  074%=      5-min Rain = 0
KPA1 120420Z 32007KT 23/18 A3008 RMK A01 T02250176  RH  074%=      5-min Rain = 0
KPA1 120421Z 32007KT 23/18 A3008 RMK A01 T02250176  RH  074%=      5-min Rain = 0
KPA1 120422Z 32007KT 23/18 A3008 RMK A01 T02250176  RH  074%=      5-min Rain = 0
KPA1 120423Z 32006KT 23/18 A3008 RMK A01 T02250176  RH  074%=      5-min Rain = 0
KPA1 120424Z 32007KT 22/18 A3008 RMK A01 T02240175  RH  074%=      5-min Rain = 0
KPA1 120425Z 32007KT 22/18 A3008 RMK A01 T02240175  RH  074%=      5-min Rain = 0
KPA1 120426Z 32006KT 22/18 A3008 RMK A01 T02240175  RH  074%=      5-min Rain = 0
KPA1 120427Z 32007KT 22/18 A3008 RMK A01 T02240175  RH  074%=      5-min Rain = 0
KPA1 120428Z 32007KT 22/18 A3008 RMK A01 T02240175  RH  074%=      5-min Rain = 0
KPA1 120429Z 32006KT 22/17 A3008 RMK A01 T02230174  RH  074%=      5-min Rain = 0
KPA1 120430Z 33007KT 22/18 A3008 RMK A01 T02240175  RH  074%=      5-min Rain = 0
KPA1 120431Z 33007KT 22/18 A3008 RMK A01 T02230175  RH  074%=      5-min Rain = 0
KPA1 120432Z 33007KT 22/18 A3007 RMK A01 T02220175  RH  074%=      5-min Rain = 0
KPA1 120433Z 32006KT 22/18 A3007 RMK A01 T02220175  RH  075%=      5-min Rain = 0
KPA1 120434Z 32005KT 22/18 A3007 RMK A01 T02220175  RH  075%=      5-min Rain = 0
KPA1 120435Z 33005KT 22/18 A3007 RMK A01 T02220175  RH  075%=      5-min Rain = 0
KPA1 120436Z 33006KT 22/18 A3007 RMK A01 T02210175  RH  075%=      5-min Rain = 0
KPA1 120437Z 34007KT 22/18 A3007 RMK A01 T02200175  RH  076%=      5-min Rain = 0
KPA1 120438Z 34007KT 22/18 A3007 RMK A01 T02190176  RH  076%=      5-min Rain = 0
KPA1 120439Z 34007KT 22/18 A3007 RMK A01 T02180175  RH  077%=      5-min Rain = 0
KPA1 120440Z 34007KT 22/18 A3007 RMK A01 T02180175  RH  077%=      5-min Rain = 0
KPA1 120441Z 34007KT 22/18 A3007 RMK A01 T02180175  RH  076%=      5-min Rain = 0
KPA1 120442Z 34007KT 22/18 A3006 RMK A01 T02190176  RH  076%=      5-min Rain = 0
KPA1 120443Z 34006KT 22/18 A3006 RMK A01 T02190176  RH  076%=      5-min Rain = 0
KPA1 120444Z 34007KT 22/18 A3006 RMK A01 T02180176  RH  077%=      5-min Rain = 0
KPA1 120445Z 33008KT 22/18 A3006 RMK A01 T02180176  RH  077%=      5-min Rain = 0
KPA1 120446Z 33008KT 22/18 A3006 RMK A01 T02180175  RH  076%=      5-min Rain = 0
KPA1 120447Z 33007KT 22/18 A3006 RMK A01 T02190175  RH  076%=      5-min Rain = 0
KPA1 120448Z 33008KT 22/18 A3006 RMK A01 T02190175  RH  076%=      5-min Rain = 0
KPA1 120449Z 33009KT 22/18 A3006 RMK A01 T02200175  RH  076%=      5-min Rain = 0
KPA1 120450Z 33008KT 22/17 A3006 RMK A01 T02200174  RH  075%=      5-min Rain = 0
KPA1 120451Z 33007KT 22/17 A3006 RMK A01 T02200174  RH  075%=      5-min Rain = 0
KPA1 120452Z 33007KT 22/18 A3006 RMK A01 T02190175  RH  076%=      5-min Rain = 0
KPA1 120453Z 33007KT 22/18 A3006 RMK A01 T02190175  RH  076%=      5-min Rain = 0
KPA1 120454Z 33007KT 22/18 A3006 RMK A01 T02180175  RH  076%=      5-min Rain = 0
KPA1 120455Z 32007KT 22/18 A3006 RMK A01 T02180176  RH  077%=      5-min Rain = 0
KPA1 120456Z 33007KT 22/18 A3006 RMK A01 T02180175  RH  077%=      5-min Rain = 0
KPA1 120457Z 33006KT 22/18 A3006 RMK A01 T02180176  RH  077%=      5-min Rain = 0
KPA1 120458Z 33006KT 22/18 A3006 RMK A01 T02180176  RH  077%=      5-min Rain = 0
KPA1 120459Z 33005KT 22/18 A3006 RMK A01 T02170176  RH  077%=      5-min Rain = 0

Page generated in 0.1398 seconds.